THY45T FACT-LTFM
Flight info
| Callsign | THY45T |
|---|---|
| Flight time | 10h 10m |
| Altitude | 37000 |
| Route | KODES1A KODES UZ30 IMKIV UT916 VLS UR779 MB UP312 LOSIN UM441 LOTAS UM308 GWZ UT124 ALRAP DCT KSL DCT TOMRU P751 AST W8 ALPID DCT GESON DCT LAGVI Q777 RASDA M855 TOMBI UM855 SISPI |
| Aircraft | A359/H-SDE2E3GHIJ3J4J5LM1ORWXY/LB1D1 |
Departure
| Time | 2026-05-04 09:57 |
|---|---|
| Airport | Cape Town International Airport (FACT) |
Arrival
| Time | 2026-05-04 20:07 |
|---|---|
| Airport | İstanbul Airport (LTFM) |
| Time | Latitude | Longitude | Altitude | Speed | Heading |
|---|---|---|---|---|---|
| 2026-05-04 09:39 | -33.96772 | 18.59760 | 161 ft | 0 kts | 255° |
| 2026-05-04 09:46 | -33.96768 | 18.59776 | 160 ft | 3 kts | 255° |
| 2026-05-04 09:46 | -33.96762 | 18.59804 | 160 ft | 3 kts | 256° |
| 2026-05-04 09:46 | -33.96757 | 18.59826 | 160 ft | 3 kts | 241° |
| 2026-05-04 09:47 | -33.96744 | 18.59844 | 160 ft | 3 kts | 193° |
| 2026-05-04 09:47 | -33.96724 | 18.59843 | 160 ft | 3 kts | 165° |
| 2026-05-04 09:49 | -33.96693 | 18.59833 | 160 ft | 0 kts | 165° |
| 2026-05-04 09:51 | -33.97090 | 18.59957 | 160 ft | 19 kts | 172° |
| 2026-05-04 09:51 | -33.97220 | 18.59992 | 160 ft | 19 kts | 165° |
| 2026-05-04 09:51 | -33.97351 | 18.60033 | 160 ft | 20 kts | 165° |
| 2026-05-04 09:51 | -33.97484 | 18.60080 | 160 ft | 20 kts | 160° |
| 2026-05-04 09:52 | -33.97612 | 18.60146 | 160 ft | 20 kts | 160° |
| 2026-05-04 09:52 | -33.97744 | 18.60203 | 160 ft | 20 kts | 161° |
| 2026-05-04 09:52 | -33.97879 | 18.60261 | 160 ft | 21 kts | 160° |
| 2026-05-04 09:52 | -33.98014 | 18.60319 | 160 ft | 21 kts | 160° |
| 2026-05-04 09:53 | -33.98255 | 18.60422 | 160 ft | 21 kts | 160° |
| 2026-05-04 09:53 | -33.98395 | 18.60482 | 160 ft | 22 kts | 160° |
| 2026-05-04 09:53 | -33.98539 | 18.60544 | 160 ft | 22 kts | 160° |
| 2026-05-04 09:54 | -33.98684 | 18.60606 | 160 ft | 22 kts | 160° |
| 2026-05-04 09:54 | -33.98778 | 18.60649 | 160 ft | 11 kts | 151° |
| 2026-05-04 09:54 | -33.98799 | 18.60725 | 160 ft | 10 kts | 82° |
| 2026-05-04 09:54 | -33.98782 | 18.60805 | 161 ft | 9 kts | 71° |
| 2026-05-04 09:55 | -33.98743 | 18.60863 | 161 ft | 9 kts | 28° |
| 2026-05-04 09:55 | -33.98685 | 18.60861 | 160 ft | 4 kts | 346° |
| 2026-05-04 09:55 | -33.98683 | 18.60860 | 160 ft | 0 kts | 346° |
| 2026-05-04 09:56 | -33.98665 | 18.60855 | 160 ft | 14 kts | 346° |
| 2026-05-04 09:56 | -33.98350 | 18.60755 | 160 ft | 79 kts | 345° |
| 2026-05-04 09:57 | -33.97620 | 18.60524 | 159 ft | 136 kts | 345° |
| 2026-05-04 09:57 | -33.96571 | 18.60183 | 393 ft | 164 kts | 346° |
| 2026-05-04 09:57 | -33.95484 | 18.59796 | 1062 ft | 161 kts | 341° |
| 2026-05-04 09:57 | -33.94401 | 18.59395 | 1572 ft | 168 kts | 340° |
| 2026-05-04 09:58 | -33.93221 | 18.58971 | 1767 ft | 187 kts | 341° |
| 2026-05-04 09:58 | -33.91852 | 18.58743 | 1939 ft | 210 kts | 357° |
| 2026-05-04 09:58 | -33.90335 | 18.58933 | 2159 ft | 230 kts | 6° |
| 2026-05-04 10:00 | -33.77958 | 18.61728 | 5986 ft | 265 kts | 5° |
| 2026-05-04 10:00 | -33.76136 | 18.62120 | 6574 ft | 267 kts | 5° |
| 2026-05-04 10:02 | -33.63492 | 18.64877 | 10731 ft | 287 kts | 3° |
| 2026-05-04 10:04 | -33.47769 | 18.68309 | 13435 ft | 353 kts | 4° |
| 2026-05-04 10:04 | -33.45342 | 18.68838 | 13972 ft | 356 kts | 4° |
| 2026-05-04 10:04 | -33.42899 | 18.69374 | 14546 ft | 357 kts | 3° |
| 2026-05-04 10:04 | -33.40458 | 18.69909 | 15168 ft | 356 kts | 3° |
| 2026-05-04 10:05 | -33.38022 | 18.70442 | 15761 ft | 356 kts | 2° |
| 2026-05-04 10:05 | -33.35585 | 18.70972 | 16370 ft | 356 kts | 2° |
| 2026-05-04 10:05 | -33.33145 | 18.71503 | 16957 ft | 357 kts | 2° |
| 2026-05-04 10:05 | -33.30701 | 18.72033 | 17529 ft | 357 kts | 1° |
| 2026-05-04 10:06 | -33.28252 | 18.72564 | 18034 ft | 359 kts | 1° |
| 2026-05-04 10:06 | -33.25784 | 18.73095 | 18496 ft | 362 kts | 1° |
| 2026-05-04 10:06 | -33.23303 | 18.73632 | 18945 ft | 364 kts | 1° |
| 2026-05-04 10:08 | -33.08353 | 18.79259 | 21656 ft | 398 kts | 17° |
| 2026-05-04 10:08 | -33.05919 | 18.80861 | 22124 ft | 401 kts | 18° |
| 2026-05-04 10:08 | -33.03478 | 18.82489 | 22587 ft | 403 kts | 18° |
| 2026-05-04 10:08 | -33.01026 | 18.84118 | 23005 ft | 405 kts | 18° |
| 2026-05-04 10:09 | -32.98548 | 18.85744 | 23414 ft | 407 kts | 18° |
| 2026-05-04 10:09 | -32.96056 | 18.87360 | 23793 ft | 409 kts | 17° |
| 2026-05-04 10:09 | -32.93546 | 18.88977 | 24156 ft | 411 kts | 17° |
| 2026-05-04 10:09 | -32.91022 | 18.90595 | 24544 ft | 412 kts | 17° |
| 2026-05-04 10:10 | -32.88493 | 18.92212 | 24951 ft | 414 kts | 17° |
| 2026-05-04 10:10 | -32.85947 | 18.93839 | 25305 ft | 416 kts | 17° |
| 2026-05-04 10:10 | -32.83387 | 18.95474 | 25687 ft | 418 kts | 17° |
| 2026-05-04 10:10 | -32.80817 | 18.97117 | 26053 ft | 420 kts | 17° |
| 2026-05-04 10:11 | -32.78237 | 18.98762 | 26408 ft | 422 kts | 17° |
| 2026-05-04 10:11 | -32.75678 | 19.00394 | 26757 ft | 424 kts | 17° |
| 2026-05-04 10:11 | -32.73038 | 19.02076 | 27094 ft | 426 kts | 17° |
| 2026-05-04 10:11 | -32.70447 | 19.03722 | 27364 ft | 429 kts | 17° |
| 2026-05-04 10:12 | -32.67808 | 19.05402 | 27687 ft | 432 kts | 17° |
| 2026-05-04 10:12 | -32.65155 | 19.07090 | 28077 ft | 433 kts | 17° |
| 2026-05-04 10:12 | -32.62494 | 19.08784 | 28435 ft | 435 kts | 17° |
| 2026-05-04 10:12 | -32.59822 | 19.10485 | 28759 ft | 436 kts | 17° |
| 2026-05-04 10:13 | -32.57139 | 19.12189 | 29014 ft | 439 kts | 17° |
| 2026-05-04 10:13 | -32.54434 | 19.13905 | 29276 ft | 443 kts | 17° |
| 2026-05-04 10:13 | -32.51713 | 19.15634 | 29585 ft | 445 kts | 17° |
| 2026-05-04 10:13 | -32.48981 | 19.17369 | 29895 ft | 446 kts | 17° |
| 2026-05-04 10:14 | -32.46245 | 19.19104 | 30174 ft | 447 kts | 17° |
| 2026-05-04 10:14 | -32.43496 | 19.20843 | 30373 ft | 449 kts | 17° |
| 2026-05-04 10:16 | -32.24071 | 19.33113 | 32189 ft | 451 kts | 16° |
| 2026-05-04 10:16 | -32.21303 | 19.34856 | 32451 ft | 451 kts | 16° |
| 2026-05-04 10:16 | -32.18536 | 19.36596 | 32668 ft | 451 kts | 16° |
| 2026-05-04 10:16 | -32.15772 | 19.38332 | 32846 ft | 450 kts | 16° |
| 2026-05-04 10:17 | -32.12996 | 19.40073 | 32953 ft | 453 kts | 16° |
| 2026-05-04 10:17 | -32.10209 | 19.41818 | 33018 ft | 456 kts | 16° |
| 2026-05-04 10:19 | -31.90093 | 19.54398 | 33035 ft | 474 kts | 17° |
| 2026-05-04 10:19 | -31.87181 | 19.56213 | 33018 ft | 473 kts | 17° |
| 2026-05-04 10:19 | -31.81364 | 19.59839 | 33031 ft | 474 kts | 17° |
| 2026-05-04 10:20 | -31.75544 | 19.63475 | 33032 ft | 473 kts | 17° |
| 2026-05-04 10:20 | -31.69728 | 19.67093 | 33030 ft | 474 kts | 17° |
| 2026-05-04 10:21 | -31.63907 | 19.70707 | 33040 ft | 473 kts | 17° |
| 2026-05-04 10:21 | -31.58090 | 19.74310 | 32989 ft | 473 kts | 17° |
| 2026-05-04 10:22 | -31.49322 | 19.79725 | 33033 ft | 476 kts | 17° |
| 2026-05-04 10:23 | -31.43456 | 19.83350 | 33030 ft | 477 kts | 17° |
| 2026-05-04 10:25 | -31.19935 | 19.97836 | 33022 ft | 480 kts | 17° |
| 2026-05-04 10:25 | -31.14033 | 20.01456 | 33037 ft | 479 kts | 17° |
| 2026-05-04 10:26 | -31.08129 | 20.05068 | 33040 ft | 479 kts | 17° |
| 2026-05-04 10:26 | -31.02224 | 20.08679 | 33016 ft | 479 kts | 17° |
| 2026-05-04 10:27 | -30.96315 | 20.12288 | 33026 ft | 481 kts | 17° |
| 2026-05-04 10:27 | -30.90388 | 20.15900 | 33028 ft | 481 kts | 17° |
| 2026-05-04 10:28 | -30.84452 | 20.19513 | 33031 ft | 482 kts | 17° |
| 2026-05-04 10:28 | -30.78511 | 20.23125 | 33029 ft | 482 kts | 17° |
| 2026-05-04 10:29 | -30.72569 | 20.26730 | 33035 ft | 482 kts | 17° |
| 2026-05-04 10:29 | -30.66629 | 20.30334 | 33033 ft | 482 kts | 17° |
| 2026-05-04 10:30 | -30.60720 | 20.33913 | 33033 ft | 482 kts | 17° |
| 2026-05-04 10:30 | -30.54733 | 20.37536 | 33036 ft | 481 kts | 17° |
| 2026-05-04 10:31 | -30.48831 | 20.41101 | 33039 ft | 482 kts | 17° |
| 2026-05-04 10:32 | -30.27994 | 20.53637 | 33036 ft | 483 kts | 17° |
| 2026-05-04 10:33 | -30.22037 | 20.57217 | 33036 ft | 482 kts | 17° |
| 2026-05-04 10:33 | -30.16080 | 20.60786 | 33034 ft | 482 kts | 17° |
| 2026-05-04 10:34 | -30.10120 | 20.64352 | 33029 ft | 483 kts | 17° |
| 2026-05-04 10:34 | -30.04162 | 20.67917 | 33034 ft | 482 kts | 17° |
| 2026-05-04 10:35 | -29.98200 | 20.71475 | 33034 ft | 483 kts | 17° |
| 2026-05-04 10:35 | -29.93239 | 20.74429 | 33032 ft | 483 kts | 17° |
| 2026-05-04 10:36 | -29.87277 | 20.77979 | 33031 ft | 482 kts | 17° |
| 2026-05-04 10:36 | -29.81311 | 20.81522 | 32995 ft | 482 kts | 17° |
| 2026-05-04 10:37 | -29.75339 | 20.85072 | 33030 ft | 483 kts | 17° |
| 2026-05-04 10:37 | -29.69354 | 20.88618 | 33032 ft | 484 kts | 17° |
| 2026-05-04 10:39 | -29.48392 | 21.01013 | 33035 ft | 484 kts | 17° |
| 2026-05-04 10:40 | -29.42399 | 21.04543 | 33037 ft | 484 kts | 17° |
| 2026-05-04 10:40 | -29.36443 | 21.08047 | 33037 ft | 484 kts | 17° |
| 2026-05-04 10:41 | -29.30449 | 21.11571 | 33037 ft | 484 kts | 17° |
| 2026-05-04 10:41 | -29.24455 | 21.15090 | 33028 ft | 484 kts | 17° |
| 2026-05-04 10:42 | -29.18449 | 21.18607 | 33047 ft | 485 kts | 17° |
| 2026-05-04 10:42 | -29.12439 | 21.22128 | 33045 ft | 485 kts | 17° |
| 2026-05-04 10:43 | -29.06430 | 21.25646 | 33048 ft | 485 kts | 17° |
| 2026-05-04 10:45 | -28.82360 | 21.39665 | 33046 ft | 487 kts | 17° |
| 2026-05-04 10:45 | -28.76314 | 21.43178 | 33043 ft | 487 kts | 17° |
| 2026-05-04 10:46 | -28.70271 | 21.46684 | 33046 ft | 488 kts | 17° |
| 2026-05-04 10:46 | -28.64228 | 21.50187 | 33049 ft | 487 kts | 17° |
| 2026-05-04 10:47 | -28.58179 | 21.53683 | 33050 ft | 488 kts | 17° |
| 2026-05-04 10:47 | -28.52110 | 21.57190 | 33049 ft | 490 kts | 17° |
| 2026-05-04 10:49 | -28.27803 | 21.71195 | 33050 ft | 491 kts | 17° |
| 2026-05-04 10:50 | -28.21700 | 21.74699 | 33057 ft | 492 kts | 17° |
| 2026-05-04 10:52 | -27.97190 | 21.88720 | 33063 ft | 498 kts | 17° |
| 2026-05-04 10:52 | -27.90994 | 21.92254 | 33063 ft | 500 kts | 17° |
| 2026-05-04 10:54 | -27.66156 | 22.06382 | 33081 ft | 501 kts | 17° |
| 2026-05-04 10:56 | -27.41137 | 22.20532 | 33102 ft | 504 kts | 17° |
| 2026-05-04 10:57 | -27.34859 | 22.24075 | 33098 ft | 506 kts | 17° |
| 2026-05-04 10:57 | -27.28551 | 22.27623 | 33096 ft | 507 kts | 17° |
| 2026-05-04 10:58 | -27.22238 | 22.31172 | 33093 ft | 507 kts | 17° |
| 2026-05-04 10:58 | -27.15922 | 22.34722 | 33102 ft | 507 kts | 17° |
| 2026-05-04 10:59 | -27.09607 | 22.38268 | 33071 ft | 507 kts | 17° |
| 2026-05-04 10:59 | -27.03281 | 22.41812 | 33091 ft | 509 kts | 17° |
| 2026-05-04 11:00 | -26.96933 | 22.45362 | 33094 ft | 510 kts | 17° |
| 2026-05-04 11:02 | -26.71480 | 22.59560 | 33091 ft | 514 kts | 17° |
| 2026-05-04 11:05 | -26.23355 | 22.86210 | 33062 ft | 516 kts | 18° |
| 2026-05-04 11:06 | -26.16922 | 22.89755 | 33036 ft | 516 kts | 18° |
| 2026-05-04 11:06 | -26.10488 | 22.93296 | 33041 ft | 516 kts | 18° |
| 2026-05-04 11:10 | -25.65394 | 23.17988 | 33006 ft | 518 kts | 18° |
| 2026-05-04 11:12 | -25.39478 | 23.32078 | 33000 ft | 519 kts | 18° |
| 2026-05-04 11:12 | -25.32985 | 23.35596 | 33002 ft | 520 kts | 18° |
| 2026-05-04 11:13 | -25.26493 | 23.39113 | 33003 ft | 520 kts | 18° |
| 2026-05-04 11:13 | -25.20062 | 23.42821 | 33004 ft | 523 kts | 20° |
| 2026-05-04 11:16 | -24.87181 | 23.58537 | 33848 ft | 501 kts | 13° |
| 2026-05-04 11:16 | -24.83935 | 23.59894 | 34162 ft | 498 kts | 13° |
| 2026-05-04 11:16 | -24.80699 | 23.61258 | 34358 ft | 498 kts | 13° |
| 2026-05-04 11:17 | -24.77486 | 23.62683 | 34546 ft | 499 kts | 14° |
| 2026-05-04 11:17 | -24.74279 | 23.64147 | 34706 ft | 499 kts | 14° |
| 2026-05-04 11:19 | -24.51883 | 23.74354 | 35686 ft | 498 kts | 14° |
| 2026-05-04 11:19 | -24.48681 | 23.75797 | 35816 ft | 498 kts | 14° |
| 2026-05-04 11:19 | -24.45476 | 23.77241 | 35932 ft | 498 kts | 14° |
| 2026-05-04 11:19 | -24.42272 | 23.78684 | 36065 ft | 497 kts | 14° |
| 2026-05-04 11:20 | -24.39071 | 23.80121 | 36202 ft | 497 kts | 13° |
| 2026-05-04 11:20 | -24.35862 | 23.81521 | 36349 ft | 496 kts | 13° |
| 2026-05-04 11:20 | -24.32650 | 23.82899 | 36516 ft | 495 kts | 13° |
| 2026-05-04 11:20 | -24.29438 | 23.84268 | 36622 ft | 495 kts | 13° |
| 2026-05-04 11:22 | -24.08072 | 23.93472 | 37025 ft | 497 kts | 13° |
| 2026-05-04 11:22 | -24.04851 | 23.94874 | 37026 ft | 499 kts | 13° |
| 2026-05-04 11:23 | -23.98371 | 23.97645 | 37024 ft | 501 kts | 12° |
| 2026-05-04 11:25 | -23.75491 | 24.07411 | 37022 ft | 507 kts | 13° |
| 2026-05-04 11:25 | -23.68917 | 24.10217 | 37025 ft | 507 kts | 13° |
| 2026-05-04 11:27 | -23.39277 | 24.22724 | 37012 ft | 509 kts | 13° |
| 2026-05-04 11:28 | -23.32670 | 24.25501 | 37012 ft | 509 kts | 13° |
| 2026-05-04 11:28 | -23.26060 | 24.28277 | 37015 ft | 509 kts | 13° |
| 2026-05-04 11:29 | -23.19454 | 24.31048 | 37015 ft | 509 kts | 13° |
| 2026-05-04 11:29 | -23.12841 | 24.33818 | 37015 ft | 509 kts | 13° |
| 2026-05-04 11:33 | -22.66564 | 24.53164 | 37015 ft | 509 kts | 15° |
| 2026-05-04 11:33 | -22.59965 | 24.55963 | 37013 ft | 509 kts | 15° |
| 2026-05-04 11:34 | -22.53367 | 24.58753 | 37012 ft | 509 kts | 15° |
| 2026-05-04 11:34 | -22.46770 | 24.61536 | 37009 ft | 509 kts | 15° |
| 2026-05-04 11:35 | -22.40170 | 24.64321 | 37018 ft | 509 kts | 15° |
| 2026-05-04 11:35 | -22.33563 | 24.67050 | 37013 ft | 508 kts | 14° |
| 2026-05-04 11:36 | -22.26941 | 24.69709 | 37015 ft | 508 kts | 14° |
| 2026-05-04 11:36 | -22.20313 | 24.72371 | 37014 ft | 508 kts | 14° |
| 2026-05-04 11:37 | -22.13734 | 24.75026 | 37015 ft | 508 kts | 14° |
| 2026-05-04 11:37 | -22.07104 | 24.77706 | 37004 ft | 509 kts | 14° |
| 2026-05-04 11:38 | -22.00474 | 24.80383 | 37016 ft | 509 kts | 14° |
| 2026-05-04 11:38 | -21.93846 | 24.83057 | 37027 ft | 508 kts | 14° |
| 2026-05-04 11:39 | -21.87228 | 24.85751 | 37026 ft | 509 kts | 15° |
| 2026-05-04 11:41 | -21.64139 | 24.95501 | 37023 ft | 509 kts | 16° |
| 2026-05-04 11:41 | -21.57541 | 24.98270 | 37024 ft | 509 kts | 16° |
| 2026-05-04 11:42 | -21.50941 | 25.01043 | 37028 ft | 509 kts | 16° |
| 2026-05-04 11:42 | -21.44343 | 25.03817 | 37027 ft | 509 kts | 16° |
| 2026-05-04 11:43 | -21.37752 | 25.06586 | 37028 ft | 509 kts | 16° |
| 2026-05-04 11:43 | -21.31156 | 25.09355 | 37026 ft | 509 kts | 16° |
| 2026-05-04 11:44 | -21.24550 | 25.12085 | 37023 ft | 509 kts | 15° |
| 2026-05-04 11:44 | -21.17924 | 25.14765 | 37026 ft | 509 kts | 15° |
| 2026-05-04 11:45 | -21.11299 | 25.17449 | 37015 ft | 509 kts | 15° |
| 2026-05-04 11:45 | -21.04684 | 25.20136 | 37029 ft | 509 kts | 16° |
| 2026-05-04 11:46 | -20.98063 | 25.22835 | 37035 ft | 509 kts | 17° |
| 2026-05-04 11:46 | -20.91463 | 25.25602 | 37034 ft | 509 kts | 17° |
| 2026-05-04 11:47 | -20.84868 | 25.28385 | 37041 ft | 509 kts | 17° |
| 2026-05-04 11:47 | -20.78267 | 25.31156 | 37028 ft | 510 kts | 17° |
| 2026-05-04 11:48 | -20.71711 | 25.33899 | 37038 ft | 510 kts | 17° |
| 2026-05-04 11:48 | -20.65108 | 25.36660 | 37040 ft | 510 kts | 17° |
| 2026-05-04 11:49 | -20.58505 | 25.39441 | 37040 ft | 511 kts | 19° |
| 2026-05-04 11:49 | -20.52131 | 25.42878 | 37039 ft | 514 kts | 24° |
| 2026-05-04 11:50 | -20.45836 | 25.46517 | 37031 ft | 515 kts | 25° |
| 2026-05-04 11:50 | -20.39558 | 25.50184 | 37043 ft | 515 kts | 25° |
| 2026-05-04 11:51 | -20.33272 | 25.53839 | 37040 ft | 515 kts | 25° |
| 2026-05-04 11:51 | -20.26975 | 25.57485 | 37040 ft | 515 kts | 25° |
| 2026-05-04 11:52 | -20.20679 | 25.61123 | 37036 ft | 515 kts | 24° |
| 2026-05-04 11:52 | -20.14383 | 25.64755 | 37042 ft | 515 kts | 25° |
| 2026-05-04 11:53 | -20.08086 | 25.68391 | 37044 ft | 515 kts | 25° |
| 2026-05-04 11:53 | -20.01786 | 25.72024 | 37053 ft | 515 kts | 25° |
| 2026-05-04 11:55 | -19.76377 | 25.86014 | 37071 ft | 513 kts | 20° |
| 2026-05-04 11:56 | -19.69873 | 25.89129 | 37053 ft | 513 kts | 21° |
| 2026-05-04 11:56 | -19.63427 | 25.92276 | 37073 ft | 513 kts | 21° |
| 2026-05-04 11:57 | -19.56956 | 25.95476 | 37074 ft | 513 kts | 21° |
| 2026-05-04 11:57 | -19.50485 | 25.98681 | 37065 ft | 513 kts | 21° |
| 2026-05-04 11:58 | -19.44003 | 26.01885 | 37079 ft | 514 kts | 22° |
| 2026-05-04 11:58 | -19.37520 | 26.05088 | 37091 ft | 514 kts | 22° |
| 2026-05-04 11:59 | -19.31027 | 26.08292 | 37089 ft | 515 kts | 22° |
| 2026-05-04 11:59 | -19.24497 | 26.11388 | 37097 ft | 514 kts | 20° |
| 2026-05-04 12:00 | -19.17922 | 26.14349 | 37108 ft | 513 kts | 20° |
| 2026-05-04 12:00 | -19.11355 | 26.17311 | 37114 ft | 513 kts | 20° |
| 2026-05-04 12:01 | -19.04787 | 26.20296 | 37113 ft | 514 kts | 20° |
| 2026-05-04 12:02 | -18.81770 | 26.30787 | 37144 ft | 515 kts | 20° |
| 2026-05-04 12:03 | -18.75227 | 26.33761 | 37140 ft | 516 kts | 21° |
| 2026-05-04 12:03 | -18.68634 | 26.36754 | 37147 ft | 516 kts | 20° |
| 2026-05-04 12:04 | -18.62040 | 26.39747 | 37153 ft | 516 kts | 20° |
| 2026-05-04 12:04 | -18.55453 | 26.42739 | 37157 ft | 516 kts | 20° |
| 2026-05-04 12:05 | -18.48860 | 26.45727 | 37150 ft | 516 kts | 20° |
| 2026-05-04 12:05 | -18.42266 | 26.48711 | 37145 ft | 516 kts | 21° |
| 2026-05-04 12:06 | -18.35670 | 26.51693 | 37137 ft | 516 kts | 21° |
| 2026-05-04 12:06 | -18.29070 | 26.54673 | 37123 ft | 516 kts | 21° |
| 2026-05-04 12:07 | -18.22470 | 26.57653 | 37120 ft | 516 kts | 21° |
| 2026-05-04 12:07 | -18.15867 | 26.60636 | 37105 ft | 517 kts | 21° |
| 2026-05-04 12:08 | -18.09261 | 26.63617 | 37099 ft | 516 kts | 21° |
| 2026-05-04 12:08 | -18.02826 | 26.66972 | 37090 ft | 518 kts | 28° |
| 2026-05-04 12:09 | -17.96665 | 26.70921 | 37090 ft | 519 kts | 30° |
| 2026-05-04 12:09 | -17.90564 | 26.74965 | 37081 ft | 519 kts | 30° |
| 2026-05-04 12:10 | -17.84459 | 26.79009 | 37080 ft | 519 kts | 30° |
| 2026-05-04 12:10 | -17.78348 | 26.83040 | 37074 ft | 519 kts | 30° |
| 2026-05-04 12:11 | -17.72242 | 26.87059 | 37074 ft | 518 kts | 30° |
| 2026-05-04 12:11 | -17.67169 | 26.90392 | 37073 ft | 518 kts | 30° |
| 2026-05-04 12:12 | -17.61061 | 26.94401 | 37069 ft | 518 kts | 30° |
| 2026-05-04 12:12 | -17.54954 | 26.98407 | 37072 ft | 518 kts | 30° |
| 2026-05-04 12:14 | -17.30537 | 27.14394 | 37048 ft | 516 kts | 30° |
| 2026-05-04 12:15 | -17.24451 | 27.18374 | 37049 ft | 516 kts | 30° |
| 2026-05-04 12:15 | -17.18369 | 27.22348 | 37053 ft | 516 kts | 30° |
| 2026-05-04 12:16 | -17.12279 | 27.26319 | 37033 ft | 516 kts | 30° |
| 2026-05-04 12:16 | -17.06180 | 27.30294 | 37037 ft | 516 kts | 30° |
| 2026-05-04 12:17 | -17.00092 | 27.34260 | 37037 ft | 516 kts | 30° |
| 2026-05-04 12:17 | -16.94003 | 27.38224 | 37023 ft | 516 kts | 30° |
| 2026-05-04 12:18 | -16.87952 | 27.42159 | 37024 ft | 516 kts | 30° |
| 2026-05-04 12:18 | -16.81864 | 27.46117 | 37021 ft | 516 kts | 30° |
| 2026-05-04 12:19 | -16.75775 | 27.50071 | 37010 ft | 515 kts | 30° |
| 2026-05-04 12:19 | -16.69684 | 27.54024 | 37008 ft | 515 kts | 30° |
| 2026-05-04 12:20 | -16.63591 | 27.57970 | 37007 ft | 515 kts | 30° |
| 2026-05-04 12:20 | -16.57502 | 27.61919 | 36999 ft | 515 kts | 30° |
| 2026-05-04 12:21 | -16.51412 | 27.65859 | 37000 ft | 515 kts | 30° |
| 2026-05-04 12:21 | -16.45322 | 27.69799 | 36999 ft | 515 kts | 30° |
| 2026-05-04 12:22 | -16.39230 | 27.73735 | 36993 ft | 515 kts | 30° |
| 2026-05-04 12:22 | -16.33145 | 27.77667 | 36993 ft | 515 kts | 30° |
| 2026-05-04 12:23 | -16.27059 | 27.81598 | 36999 ft | 515 kts | 30° |
| 2026-05-04 12:23 | -16.20971 | 27.85524 | 36996 ft | 515 kts | 30° |
| 2026-05-04 12:24 | -16.14929 | 27.89421 | 36998 ft | 514 kts | 30° |
| 2026-05-04 12:24 | -16.08841 | 27.93343 | 36997 ft | 514 kts | 30° |
| 2026-05-04 12:25 | -16.02769 | 27.97257 | 36998 ft | 513 kts | 30° |
| 2026-05-04 12:25 | -15.96695 | 28.01163 | 36998 ft | 513 kts | 30° |
| 2026-05-04 12:26 | -15.90630 | 28.05057 | 36998 ft | 512 kts | 30° |
| 2026-05-04 12:26 | -15.84569 | 28.08953 | 37002 ft | 512 kts | 30° |
| 2026-05-04 12:27 | -15.78508 | 28.12841 | 37001 ft | 512 kts | 30° |
| 2026-05-04 12:27 | -15.72439 | 28.16730 | 36998 ft | 512 kts | 30° |
| 2026-05-04 12:28 | -15.66372 | 28.20620 | 37004 ft | 512 kts | 30° |
| 2026-05-04 12:28 | -15.60311 | 28.24503 | 37004 ft | 512 kts | 30° |
| 2026-05-04 12:29 | -15.54248 | 28.28383 | 37004 ft | 512 kts | 30° |
| 2026-05-04 12:29 | -15.48184 | 28.32260 | 37010 ft | 512 kts | 30° |
| 2026-05-04 12:30 | -15.42120 | 28.36137 | 37009 ft | 512 kts | 30° |
| 2026-05-04 12:30 | -15.36070 | 28.40004 | 37009 ft | 511 kts | 30° |
| 2026-05-04 12:31 | -15.30222 | 28.44204 | 37009 ft | 512 kts | 35° |
| 2026-05-04 12:31 | -15.24584 | 28.48714 | 37010 ft | 512 kts | 36° |
| 2026-05-04 12:32 | -15.16186 | 28.55560 | 37009 ft | 512 kts | 36° |
| 2026-05-04 12:33 | -15.10588 | 28.60114 | 37010 ft | 512 kts | 36° |
| 2026-05-04 12:33 | -15.04979 | 28.64660 | 37006 ft | 512 kts | 36° |
| 2026-05-04 12:34 | -14.99381 | 28.69190 | 37003 ft | 510 kts | 36° |
| 2026-05-04 12:34 | -14.93819 | 28.73684 | 37005 ft | 511 kts | 36° |
| 2026-05-04 12:35 | -14.88183 | 28.78241 | 37002 ft | 511 kts | 36° |
| 2026-05-04 12:35 | -14.82620 | 28.82736 | 37003 ft | 510 kts | 36° |
| 2026-05-04 12:36 | -14.77024 | 28.87253 | 36994 ft | 511 kts | 36° |
| 2026-05-04 12:36 | -14.71429 | 28.91772 | 36991 ft | 511 kts | 36° |
| 2026-05-04 12:37 | -14.65829 | 28.96286 | 36990 ft | 510 kts | 36° |
| 2026-05-04 12:37 | -14.60233 | 29.00793 | 36991 ft | 510 kts | 36° |
| 2026-05-04 12:38 | -14.54634 | 29.05301 | 36990 ft | 510 kts | 36° |
| 2026-05-04 12:38 | -14.49035 | 29.09807 | 36996 ft | 510 kts | 36° |
| 2026-05-04 12:39 | -14.43441 | 29.14307 | 36996 ft | 510 kts | 36° |
| 2026-05-04 12:39 | -14.37843 | 29.18804 | 36996 ft | 510 kts | 36° |
| 2026-05-04 12:40 | -14.32246 | 29.23297 | 36997 ft | 510 kts | 36° |
| 2026-05-04 12:40 | -14.26647 | 29.27791 | 37002 ft | 510 kts | 36° |
| 2026-05-04 12:41 | -14.21050 | 29.32282 | 36999 ft | 510 kts | 36° |
| 2026-05-04 12:41 | -14.15451 | 29.36771 | 37004 ft | 510 kts | 36° |
| 2026-05-04 12:42 | -14.09885 | 29.41228 | 37004 ft | 510 kts | 36° |
| 2026-05-04 12:42 | -14.04287 | 29.45710 | 37004 ft | 510 kts | 36° |
| 2026-05-04 12:43 | -13.98686 | 29.50190 | 37008 ft | 509 kts | 36° |
| 2026-05-04 12:43 | -13.93093 | 29.54663 | 37009 ft | 509 kts | 36° |
| 2026-05-04 12:44 | -13.87504 | 29.59127 | 37007 ft | 508 kts | 36° |
| 2026-05-04 12:44 | -13.81909 | 29.63590 | 37012 ft | 509 kts | 36° |
| 2026-05-04 12:45 | -13.76302 | 29.68064 | 37013 ft | 510 kts | 36° |
| 2026-05-04 12:45 | -13.70697 | 29.72537 | 37014 ft | 510 kts | 36° |
| 2026-05-04 12:46 | -13.65082 | 29.77010 | 37016 ft | 510 kts | 36° |
| 2026-05-04 12:46 | -13.59481 | 29.81473 | 37016 ft | 509 kts | 36° |
| 2026-05-04 12:47 | -13.53877 | 29.85935 | 37018 ft | 510 kts | 36° |
| 2026-05-04 12:47 | -13.48270 | 29.90396 | 37015 ft | 510 kts | 36° |
| 2026-05-04 12:48 | -13.42653 | 29.94863 | 37016 ft | 510 kts | 36° |
| 2026-05-04 12:48 | -13.37075 | 29.99295 | 37010 ft | 511 kts | 36° |
| 2026-05-04 12:49 | -13.31454 | 30.03761 | 37009 ft | 511 kts | 36° |
| 2026-05-04 12:49 | -13.25836 | 30.08223 | 37003 ft | 510 kts | 36° |
| 2026-05-04 12:50 | -13.20218 | 30.12681 | 37002 ft | 511 kts | 36° |
| 2026-05-04 12:50 | -13.14595 | 30.17145 | 37004 ft | 511 kts | 36° |
| 2026-05-04 12:51 | -13.08959 | 30.21613 | 37002 ft | 512 kts | 36° |
| 2026-05-04 12:51 | -13.03318 | 30.26080 | 37002 ft | 512 kts | 36° |
| 2026-05-04 12:52 | -12.97675 | 30.30545 | 37006 ft | 512 kts | 36° |
| 2026-05-04 12:52 | -12.92035 | 30.35011 | 36998 ft | 512 kts | 36° |
| 2026-05-04 12:53 | -12.86402 | 30.39472 | 36999 ft | 511 kts | 36° |
| 2026-05-04 12:53 | -12.80769 | 30.43933 | 37001 ft | 512 kts | 36° |
| 2026-05-04 12:54 | -12.75137 | 30.48391 | 37001 ft | 512 kts | 36° |
| 2026-05-04 12:54 | -12.69494 | 30.52856 | 37012 ft | 512 kts | 36° |
| 2026-05-04 12:55 | -12.63849 | 30.57313 | 37002 ft | 513 kts | 36° |
| 2026-05-04 12:55 | -12.58202 | 30.61771 | 37001 ft | 512 kts | 36° |
| 2026-05-04 12:56 | -12.52560 | 30.66222 | 37002 ft | 512 kts | 36° |
| 2026-05-04 12:56 | -12.46921 | 30.70669 | 37001 ft | 512 kts | 36° |
| 2026-05-04 12:57 | -12.41284 | 30.75115 | 37016 ft | 511 kts | 36° |
| 2026-05-04 12:57 | -12.35648 | 30.79557 | 37001 ft | 511 kts | 36° |
| 2026-05-04 12:58 | -12.30052 | 30.83968 | 37001 ft | 511 kts | 36° |
| 2026-05-04 12:58 | -12.24415 | 30.88402 | 36994 ft | 510 kts | 36° |
| 2026-05-04 12:59 | -12.18798 | 30.92818 | 36997 ft | 509 kts | 36° |
| 2026-05-04 12:59 | -12.13186 | 30.97226 | 37006 ft | 508 kts | 36° |
| 2026-05-04 13:00 | -12.07578 | 31.01642 | 37001 ft | 509 kts | 36° |
| 2026-05-04 13:00 | -12.01963 | 31.06053 | 37002 ft | 509 kts | 36° |
| 2026-05-04 13:01 | -11.96344 | 31.10459 | 37003 ft | 509 kts | 36° |
| 2026-05-04 13:01 | -11.91671 | 31.14123 | 37001 ft | 509 kts | 36° |
| 2026-05-04 13:02 | -11.85116 | 31.19270 | 37003 ft | 508 kts | 36° |
| 2026-05-04 13:02 | -11.80452 | 31.22924 | 37003 ft | 508 kts | 36° |
| 2026-05-04 13:03 | -11.74838 | 31.27317 | 37005 ft | 509 kts | 36° |
| 2026-05-04 13:03 | -11.69222 | 31.31714 | 37007 ft | 509 kts | 36° |
| 2026-05-04 13:04 | -11.63601 | 31.36114 | 37007 ft | 509 kts | 36° |
| 2026-05-04 13:04 | -11.57978 | 31.40515 | 37007 ft | 509 kts | 36° |
| 2026-05-04 13:05 | -11.52363 | 31.44902 | 37008 ft | 508 kts | 36° |
| 2026-05-04 13:05 | -11.46756 | 31.49278 | 37009 ft | 508 kts | 36° |
| 2026-05-04 13:06 | -11.41147 | 31.53656 | 37014 ft | 508 kts | 36° |
| 2026-05-04 13:06 | -11.35574 | 31.58005 | 37015 ft | 508 kts | 36° |
| 2026-05-04 13:07 | -11.29964 | 31.62384 | 37006 ft | 508 kts | 36° |
| 2026-05-04 13:07 | -11.24354 | 31.66759 | 37015 ft | 508 kts | 36° |
| 2026-05-04 13:08 | -11.18741 | 31.71132 | 37015 ft | 508 kts | 37° |
| 2026-05-04 13:08 | -11.13137 | 31.75496 | 37011 ft | 507 kts | 36° |
| 2026-05-04 13:09 | -11.07534 | 31.79858 | 37009 ft | 508 kts | 37° |
| 2026-05-04 13:09 | -11.01923 | 31.84229 | 36999 ft | 508 kts | 37° |
| 2026-05-04 13:10 | -10.96310 | 31.88602 | 37002 ft | 508 kts | 37° |
| 2026-05-04 13:10 | -10.90694 | 31.92975 | 37004 ft | 508 kts | 36° |
| 2026-05-04 13:11 | -10.85075 | 31.97344 | 36995 ft | 508 kts | 37° |
| 2026-05-04 13:11 | -10.79470 | 32.01707 | 36996 ft | 507 kts | 37° |
| 2026-05-04 13:12 | -10.73869 | 32.06057 | 36989 ft | 507 kts | 37° |
| 2026-05-04 13:12 | -10.68263 | 32.10408 | 36988 ft | 507 kts | 37° |
| 2026-05-04 13:13 | -10.62653 | 32.14760 | 36991 ft | 507 kts | 37° |
| 2026-05-04 13:13 | -10.57041 | 32.19114 | 36987 ft | 507 kts | 37° |
| 2026-05-04 13:14 | -10.51430 | 32.23463 | 36984 ft | 507 kts | 37° |
| 2026-05-04 13:14 | -10.45822 | 32.27814 | 36983 ft | 507 kts | 37° |
| 2026-05-04 13:15 | -10.40217 | 32.32156 | 36985 ft | 507 kts | 37° |
| 2026-05-04 13:15 | -10.34610 | 32.36499 | 36986 ft | 507 kts | 37° |
| 2026-05-04 13:16 | -10.29000 | 32.40844 | 36980 ft | 507 kts | 37° |
| 2026-05-04 13:16 | -10.23426 | 32.45162 | 36979 ft | 508 kts | 37° |
| 2026-05-04 13:17 | -10.17807 | 32.49506 | 36976 ft | 508 kts | 37° |
| 2026-05-04 13:17 | -10.12187 | 32.53849 | 36977 ft | 507 kts | 37° |
| 2026-05-04 13:18 | -10.06571 | 32.58189 | 36974 ft | 507 kts | 37° |
| 2026-05-04 13:18 | -10.00954 | 32.62528 | 36974 ft | 507 kts | 37° |
| 2026-05-04 13:19 | -9.95334 | 32.66865 | 36975 ft | 508 kts | 37° |
| 2026-05-04 13:19 | -9.89713 | 32.71203 | 36974 ft | 508 kts | 37° |
| 2026-05-04 13:20 | -9.84089 | 32.75541 | 36975 ft | 508 kts | 37° |
| 2026-05-04 13:20 | -9.78463 | 32.79882 | 36979 ft | 508 kts | 37° |
| 2026-05-04 13:21 | -9.72831 | 32.84221 | 36985 ft | 509 kts | 37° |
| 2026-05-04 13:21 | -9.67198 | 32.88557 | 36985 ft | 508 kts | 37° |
| 2026-05-04 13:22 | -9.61568 | 32.92891 | 36984 ft | 508 kts | 37° |
| 2026-05-04 13:22 | -9.55938 | 32.97225 | 36990 ft | 508 kts | 37° |
| 2026-05-04 13:23 | -9.50348 | 33.01524 | 36991 ft | 507 kts | 37° |
| 2026-05-04 13:23 | -9.44732 | 33.05842 | 37005 ft | 507 kts | 37° |
| 2026-05-04 13:24 | -9.39124 | 33.10148 | 37005 ft | 506 kts | 37° |
| 2026-05-04 13:24 | -9.33496 | 33.14435 | 37009 ft | 506 kts | 37° |
| 2026-05-04 13:25 | -9.25052 | 33.20860 | 37023 ft | 506 kts | 38° |
| 2026-05-04 13:25 | -9.19429 | 33.25144 | 37023 ft | 505 kts | 37° |
| 2026-05-04 13:26 | -9.13811 | 33.29423 | 37034 ft | 505 kts | 38° |
| 2026-05-04 13:26 | -9.08203 | 33.33691 | 37026 ft | 504 kts | 38° |
| 2026-05-04 13:27 | -9.02597 | 33.37957 | 37037 ft | 505 kts | 38° |
| 2026-05-04 13:27 | -8.96983 | 33.42231 | 37020 ft | 505 kts | 38° |
| 2026-05-04 13:28 | -8.91164 | 33.46197 | 37022 ft | 506 kts | 27° |
| 2026-05-04 13:28 | -8.84848 | 33.49330 | 37025 ft | 506 kts | 26° |
| 2026-05-04 13:29 | -8.78452 | 33.52304 | 37009 ft | 506 kts | 26° |
| 2026-05-04 13:29 | -8.72043 | 33.55255 | 37007 ft | 506 kts | 25° |
| 2026-05-04 13:30 | -8.65643 | 33.58217 | 36985 ft | 506 kts | 26° |
| 2026-05-04 13:30 | -8.59294 | 33.61176 | 36985 ft | 506 kts | 25° |
| 2026-05-04 13:31 | -8.52898 | 33.64155 | 36971 ft | 506 kts | 25° |
| 2026-05-04 13:31 | -8.46502 | 33.67131 | 36971 ft | 506 kts | 26° |
| 2026-05-04 13:32 | -8.40096 | 33.70108 | 36965 ft | 507 kts | 26° |
| 2026-05-04 13:32 | -8.33693 | 33.73079 | 36966 ft | 507 kts | 26° |
| 2026-05-04 13:33 | -8.27287 | 33.76055 | 36968 ft | 506 kts | 26° |
| 2026-05-04 13:33 | -8.20890 | 33.79026 | 36968 ft | 506 kts | 26° |
| 2026-05-04 13:34 | -8.14491 | 33.81998 | 36976 ft | 506 kts | 26° |
| 2026-05-04 13:34 | -8.08087 | 33.84972 | 36976 ft | 506 kts | 25° |
| 2026-05-04 13:35 | -7.98482 | 33.89428 | 36985 ft | 507 kts | 26° |
| 2026-05-04 13:36 | -7.92079 | 33.92399 | 36989 ft | 507 kts | 25° |
| 2026-05-04 13:36 | -7.85676 | 33.95367 | 36990 ft | 506 kts | 26° |
| 2026-05-04 13:37 | -7.79264 | 33.98340 | 36986 ft | 508 kts | 26° |
| 2026-05-04 13:37 | -7.72836 | 34.01316 | 36985 ft | 508 kts | 26° |
| 2026-05-04 13:38 | -7.66409 | 34.04293 | 36976 ft | 509 kts | 26° |
| 2026-05-04 13:38 | -7.59978 | 34.07269 | 36976 ft | 509 kts | 26° |
| 2026-05-04 13:39 | -7.53548 | 34.10247 | 36974 ft | 509 kts | 25° |
| 2026-05-04 13:39 | -7.47105 | 34.13227 | 36969 ft | 509 kts | 26° |
| 2026-05-04 13:40 | -7.40661 | 34.16206 | 36962 ft | 510 kts | 25° |
| 2026-05-04 13:40 | -7.34219 | 34.19184 | 36964 ft | 509 kts | 26° |
| 2026-05-04 13:41 | -7.27823 | 34.22139 | 36964 ft | 510 kts | 26° |
| 2026-05-04 13:41 | -7.21373 | 34.25116 | 36965 ft | 510 kts | 26° |
| 2026-05-04 13:42 | -7.11709 | 34.29579 | 36964 ft | 510 kts | 26° |
| 2026-05-04 13:42 | -7.05268 | 34.32553 | 36963 ft | 509 kts | 26° |
| 2026-05-04 13:43 | -6.98830 | 34.35528 | 36965 ft | 509 kts | 26° |
| 2026-05-04 13:43 | -6.92386 | 34.38501 | 36966 ft | 509 kts | 26° |
| 2026-05-04 13:44 | -6.85948 | 34.41468 | 36965 ft | 508 kts | 26° |
| 2026-05-04 13:44 | -6.79521 | 34.44430 | 36967 ft | 508 kts | 26° |
| 2026-05-04 13:45 | -6.73099 | 34.47392 | 36968 ft | 507 kts | 26° |
| 2026-05-04 13:45 | -6.66673 | 34.50356 | 36968 ft | 508 kts | 26° |
| 2026-05-04 13:46 | -6.60239 | 34.53324 | 36968 ft | 508 kts | 26° |
| 2026-05-04 13:46 | -6.53803 | 34.56286 | 36968 ft | 509 kts | 26° |
| 2026-05-04 13:47 | -6.47367 | 34.59246 | 36974 ft | 509 kts | 26° |
| 2026-05-04 13:47 | -6.40934 | 34.62207 | 36975 ft | 508 kts | 26° |
| 2026-05-04 13:48 | -6.34501 | 34.65167 | 36971 ft | 508 kts | 26° |
| 2026-05-04 13:48 | -6.28103 | 34.68111 | 36971 ft | 509 kts | 26° |
| 2026-05-04 13:49 | -6.21668 | 34.71074 | 36973 ft | 508 kts | 26° |
| 2026-05-04 13:49 | -6.15252 | 34.74024 | 36971 ft | 507 kts | 26° |
| 2026-05-04 13:50 | -6.08821 | 34.76979 | 36974 ft | 508 kts | 26° |
| 2026-05-04 13:50 | -6.02387 | 34.79936 | 36974 ft | 509 kts | 26° |
| 2026-05-04 13:51 | -5.95946 | 34.82894 | 36974 ft | 509 kts | 26° |
| 2026-05-04 13:51 | -5.89515 | 34.85848 | 36962 ft | 508 kts | 26° |
| 2026-05-04 13:52 | -5.79885 | 34.90269 | 36963 ft | 507 kts | 26° |
| 2026-05-04 13:53 | -5.73474 | 34.93214 | 36966 ft | 507 kts | 26° |
| 2026-05-04 13:53 | -5.68148 | 34.95663 | 36960 ft | 507 kts | 26° |
| 2026-05-04 13:54 | -5.58530 | 35.00084 | 36965 ft | 506 kts | 26° |
| 2026-05-04 13:55 | -5.48923 | 35.04498 | 36957 ft | 506 kts | 27° |
| 2026-05-04 13:55 | -5.39313 | 35.08910 | 36966 ft | 506 kts | 26° |
| 2026-05-04 13:56 | -5.32901 | 35.11854 | 36973 ft | 507 kts | 26° |
| 2026-05-04 13:57 | -5.23299 | 35.16258 | 36969 ft | 505 kts | 27° |
| 2026-05-04 13:58 | -5.10512 | 35.22121 | 36975 ft | 505 kts | 27° |
| 2026-05-04 13:58 | -5.00911 | 35.26506 | 36977 ft | 506 kts | 27° |
| 2026-05-04 13:59 | -4.94503 | 35.29433 | 36982 ft | 506 kts | 27° |
| 2026-05-04 14:00 | -4.84897 | 35.33822 | 36990 ft | 506 kts | 27° |
| 2026-05-04 14:00 | -4.75288 | 35.38219 | 36994 ft | 506 kts | 27° |
| 2026-05-04 14:01 | -4.68924 | 35.41121 | 37006 ft | 506 kts | 27° |
| 2026-05-04 14:02 | -4.59320 | 35.45506 | 37022 ft | 505 kts | 27° |
| 2026-05-04 14:02 | -4.52923 | 35.48433 | 37021 ft | 506 kts | 27° |
| 2026-05-04 14:03 | -4.46523 | 35.51354 | 37029 ft | 505 kts | 27° |
| 2026-05-04 14:03 | -4.40128 | 35.54271 | 37029 ft | 505 kts | 27° |
| 2026-05-04 14:04 | -4.30525 | 35.58658 | 37031 ft | 506 kts | 27° |
| 2026-05-04 14:04 | -4.24124 | 35.61580 | 37031 ft | 506 kts | 27° |
| 2026-05-04 14:05 | -4.14494 | 35.65899 | 37022 ft | 505 kts | 26° |
| 2026-05-04 14:06 | -4.08067 | 35.68763 | 37021 ft | 505 kts | 26° |
| 2026-05-04 14:06 | -4.01646 | 35.71634 | 37023 ft | 505 kts | 27° |
| 2026-05-04 14:07 | -3.95250 | 35.74510 | 37021 ft | 503 kts | 27° |
| 2026-05-04 14:07 | -3.88892 | 35.77458 | 37010 ft | 504 kts | 27° |
| 2026-05-04 14:08 | -3.82528 | 35.80427 | 37012 ft | 505 kts | 27° |
| 2026-05-04 14:08 | -3.76198 | 35.83367 | 37012 ft | 505 kts | 27° |
| 2026-05-04 14:09 | -3.66631 | 35.87803 | 37028 ft | 504 kts | 27° |
| 2026-05-04 14:10 | -3.57087 | 35.92220 | 37042 ft | 504 kts | 27° |
| 2026-05-04 14:10 | -3.50720 | 35.95159 | 37042 ft | 504 kts | 27° |
| 2026-05-04 14:11 | -3.44338 | 35.98067 | 37059 ft | 504 kts | 27° |
| 2026-05-04 14:11 | -3.34773 | 36.02426 | 37058 ft | 504 kts | 27° |
| 2026-05-04 14:12 | -3.28394 | 36.05332 | 37072 ft | 504 kts | 27° |
| 2026-05-04 14:13 | -3.18830 | 36.09697 | 37067 ft | 504 kts | 27° |
| 2026-05-04 14:13 | -3.12229 | 36.12084 | 37067 ft | 508 kts | 14° |
| 2026-05-04 14:14 | -3.05208 | 36.13089 | 37072 ft | 511 kts | 9° |
| 2026-05-04 14:14 | -2.94594 | 36.14117 | 37073 ft | 511 kts | 8° |
| 2026-05-04 14:15 | -2.80445 | 36.15480 | 37066 ft | 511 kts | 8° |
| 2026-05-04 14:16 | -2.69880 | 36.16540 | 37065 ft | 511 kts | 8° |
| 2026-05-04 14:17 | -2.59267 | 36.17605 | 37064 ft | 511 kts | 8° |
| 2026-05-04 14:18 | -2.48605 | 36.18668 | 37056 ft | 511 kts | 8° |
| 2026-05-04 14:19 | -2.34508 | 36.20079 | 37048 ft | 510 kts | 8° |
| 2026-05-04 14:19 | -2.27449 | 36.20786 | 37042 ft | 510 kts | 8° |
| 2026-05-04 14:20 | -2.20412 | 36.21630 | 37050 ft | 509 kts | 12° |
| 2026-05-04 14:20 | -2.13453 | 36.22904 | 37047 ft | 508 kts | 13° |
| 2026-05-04 14:21 | -2.03047 | 36.24928 | 37062 ft | 507 kts | 13° |
| 2026-05-04 14:21 | -1.96118 | 36.26284 | 37072 ft | 508 kts | 13° |
| 2026-05-04 14:22 | -1.89181 | 36.27632 | 37072 ft | 508 kts | 13° |
| 2026-05-04 14:22 | -1.82235 | 36.28980 | 37083 ft | 508 kts | 13° |
| 2026-05-04 14:23 | -1.71823 | 36.30993 | 37099 ft | 508 kts | 13° |
| 2026-05-04 14:24 | -1.64886 | 36.32339 | 37098 ft | 508 kts | 13° |
| 2026-05-04 14:24 | -1.57945 | 36.33685 | 37118 ft | 508 kts | 13° |
| 2026-05-04 14:25 | -1.51006 | 36.35030 | 37122 ft | 508 kts | 13° |
| 2026-05-04 14:25 | -1.40598 | 36.37047 | 37143 ft | 508 kts | 13° |
| 2026-05-04 14:26 | -1.33707 | 36.38386 | 37162 ft | 508 kts | 13° |
| 2026-05-04 14:26 | -1.26774 | 36.39728 | 37163 ft | 508 kts | 13° |
| 2026-05-04 14:27 | -1.19842 | 36.41070 | 37175 ft | 507 kts | 13° |
| 2026-05-04 14:27 | -1.12935 | 36.42409 | 37176 ft | 505 kts | 13° |
| 2026-05-04 14:28 | -1.06045 | 36.43747 | 37194 ft | 504 kts | 13° |
| 2026-05-04 14:28 | -0.99154 | 36.45082 | 37195 ft | 504 kts | 13° |
| 2026-05-04 14:29 | -0.85374 | 36.47749 | 37219 ft | 503 kts | 13° |
| 2026-05-04 14:30 | -0.78507 | 36.49079 | 37220 ft | 502 kts | 13° |
| 2026-05-04 14:31 | -0.68210 | 36.51074 | 37216 ft | 503 kts | 13° |
| 2026-05-04 14:32 | -0.54466 | 36.53738 | 37220 ft | 502 kts | 13° |
| 2026-05-04 14:32 | -0.47603 | 36.55066 | 37211 ft | 502 kts | 13° |
| 2026-05-04 14:33 | -0.40739 | 36.56394 | 37225 ft | 503 kts | 13° |
| 2026-05-04 14:33 | -0.33878 | 36.57726 | 37217 ft | 502 kts | 13° |
| 2026-05-04 14:34 | -0.27016 | 36.59054 | 37212 ft | 503 kts | 13° |
| 2026-05-04 14:34 | -0.20142 | 36.60385 | 37191 ft | 503 kts | 13° |
| 2026-05-04 14:35 | -0.13275 | 36.61717 | 37194 ft | 503 kts | 13° |
| 2026-05-04 14:35 | -0.06457 | 36.63038 | 37194 ft | 502 kts | 13° |
| 2026-05-04 14:36 | 0.00407 | 36.64368 | 37196 ft | 503 kts | 13° |
| 2026-05-04 14:36 | 0.07282 | 36.65698 | 37187 ft | 504 kts | 13° |
| 2026-05-04 14:37 | 0.14173 | 36.67030 | 37157 ft | 504 kts | 13° |
| 2026-05-04 14:37 | 0.21058 | 36.68365 | 37157 ft | 504 kts | 13° |
| 2026-05-04 14:38 | 0.27945 | 36.69696 | 37139 ft | 504 kts | 13° |
| 2026-05-04 14:38 | 0.34830 | 36.71030 | 37141 ft | 505 kts | 13° |
| 2026-05-04 14:39 | 0.41731 | 36.72369 | 37128 ft | 505 kts | 13° |
| 2026-05-04 14:39 | 0.48634 | 36.73707 | 37127 ft | 505 kts | 13° |
| 2026-05-04 14:40 | 0.58981 | 36.75714 | 37099 ft | 505 kts | 13° |
| 2026-05-04 14:40 | 0.65871 | 36.77050 | 37091 ft | 504 kts | 13° |
| 2026-05-04 14:41 | 0.72757 | 36.78382 | 37092 ft | 503 kts | 13° |
| 2026-05-04 14:42 | 0.86509 | 36.81046 | 37081 ft | 503 kts | 13° |
| 2026-05-04 14:42 | 0.92222 | 36.82152 | 37081 ft | 503 kts | 13° |
| 2026-05-04 14:43 | 0.99097 | 36.83483 | 37069 ft | 503 kts | 13° |
| 2026-05-04 14:43 | 1.05977 | 36.84816 | 37057 ft | 504 kts | 13° |
| 2026-05-04 14:44 | 1.12855 | 36.86149 | 37041 ft | 504 kts | 13° |
| 2026-05-04 14:44 | 1.19737 | 36.87483 | 37039 ft | 503 kts | 13° |
| 2026-05-04 14:45 | 1.26614 | 36.88814 | 37018 ft | 504 kts | 13° |
| 2026-05-04 14:45 | 1.33502 | 36.90151 | 37017 ft | 504 kts | 13° |
| 2026-05-04 14:46 | 1.40387 | 36.91486 | 36997 ft | 504 kts | 13° |
| 2026-05-04 14:46 | 1.47282 | 36.92822 | 36975 ft | 504 kts | 13° |
| 2026-05-04 14:47 | 1.54170 | 36.94158 | 36979 ft | 504 kts | 13° |
| 2026-05-04 14:47 | 1.61066 | 36.95496 | 36949 ft | 505 kts | 13° |
| 2026-05-04 14:48 | 1.67961 | 36.96833 | 36953 ft | 505 kts | 13° |
| 2026-05-04 14:48 | 1.74865 | 36.98169 | 36937 ft | 505 kts | 13° |
| 2026-05-04 14:49 | 1.81767 | 36.99505 | 36936 ft | 505 kts | 13° |
| 2026-05-04 14:49 | 1.88622 | 37.00831 | 36929 ft | 506 kts | 13° |
| 2026-05-04 14:50 | 1.95530 | 37.02174 | 36902 ft | 506 kts | 13° |
| 2026-05-04 14:50 | 2.02440 | 37.03514 | 36902 ft | 506 kts | 13° |
| 2026-05-04 14:51 | 2.09354 | 37.04857 | 36883 ft | 506 kts | 13° |
| 2026-05-04 14:51 | 2.16270 | 37.06199 | 36883 ft | 506 kts | 13° |
| 2026-05-04 14:52 | 2.23179 | 37.07539 | 36870 ft | 506 kts | 13° |
| 2026-05-04 14:52 | 2.30100 | 37.08883 | 36870 ft | 507 kts | 13° |
| 2026-05-04 14:53 | 2.37024 | 37.10228 | 36858 ft | 506 kts | 13° |
| 2026-05-04 14:53 | 2.43947 | 37.11570 | 36851 ft | 506 kts | 12° |
| 2026-05-04 14:54 | 2.50861 | 37.12911 | 36851 ft | 506 kts | 13° |
| 2026-05-04 14:54 | 2.57778 | 37.14254 | 36844 ft | 506 kts | 12° |
| 2026-05-04 14:55 | 2.64695 | 37.15596 | 36844 ft | 506 kts | 12° |
| 2026-05-04 14:55 | 2.71612 | 37.16939 | 36838 ft | 507 kts | 12° |
| 2026-05-04 14:56 | 2.78532 | 37.18281 | 36836 ft | 506 kts | 12° |
| 2026-05-04 14:56 | 2.85443 | 37.19628 | 36832 ft | 506 kts | 12° |
| 2026-05-04 14:57 | 2.92316 | 37.20962 | 36831 ft | 506 kts | 12° |
| 2026-05-04 14:57 | 2.99235 | 37.22303 | 36830 ft | 506 kts | 12° |
| 2026-05-04 14:58 | 3.06146 | 37.23647 | 36824 ft | 506 kts | 12° |
| 2026-05-04 14:58 | 3.13055 | 37.24987 | 36823 ft | 506 kts | 12° |
| 2026-05-04 14:59 | 3.19962 | 37.26327 | 36822 ft | 505 kts | 12° |
| 2026-05-04 15:00 | 3.30319 | 37.28344 | 36821 ft | 505 kts | 12° |
| 2026-05-04 15:00 | 3.37221 | 37.29683 | 36823 ft | 505 kts | 13° |
| 2026-05-04 15:01 | 3.47554 | 37.31691 | 36825 ft | 503 kts | 13° |
| 2026-05-04 15:01 | 3.54431 | 37.33028 | 36825 ft | 503 kts | 13° |
| 2026-05-04 15:02 | 3.61308 | 37.34367 | 36832 ft | 503 kts | 13° |
| 2026-05-04 15:02 | 3.68188 | 37.35703 | 36837 ft | 504 kts | 12° |
| 2026-05-04 15:03 | 3.75071 | 37.37044 | 36837 ft | 504 kts | 12° |
| 2026-05-04 15:03 | 3.81961 | 37.38385 | 36837 ft | 504 kts | 12° |
| 2026-05-04 15:04 | 3.88847 | 37.39725 | 36839 ft | 504 kts | 12° |
| 2026-05-04 15:04 | 3.95737 | 37.41065 | 36839 ft | 504 kts | 12° |
| 2026-05-04 15:05 | 4.02736 | 37.41398 | 36854 ft | 506 kts | 357° |
| 2026-05-04 15:05 | 4.09702 | 37.40704 | 36851 ft | 507 kts | 354° |
| 2026-05-04 15:06 | 4.16710 | 37.39831 | 36858 ft | 508 kts | 354° |
| 2026-05-04 15:07 | 4.27226 | 37.38516 | 36874 ft | 508 kts | 354° |
| 2026-05-04 15:07 | 4.34235 | 37.37666 | 36875 ft | 507 kts | 354° |
| 2026-05-04 15:08 | 4.41235 | 37.36826 | 36878 ft | 507 kts | 354° |
| 2026-05-04 15:08 | 4.48236 | 37.35984 | 36877 ft | 507 kts | 354° |
| 2026-05-04 15:09 | 4.55237 | 37.35139 | 36888 ft | 507 kts | 354° |
| 2026-05-04 15:09 | 4.62238 | 37.34293 | 36891 ft | 507 kts | 354° |
| 2026-05-04 15:10 | 4.72740 | 37.33027 | 36887 ft | 507 kts | 354° |
| 2026-05-04 15:11 | 4.83242 | 37.31760 | 36887 ft | 507 kts | 354° |
| 2026-05-04 15:11 | 4.90248 | 37.30914 | 36886 ft | 507 kts | 354° |
| 2026-05-04 15:12 | 4.97259 | 37.30068 | 36885 ft | 508 kts | 354° |
| 2026-05-04 15:12 | 5.04272 | 37.29222 | 36882 ft | 508 kts | 354° |
| 2026-05-04 15:13 | 5.11288 | 37.28372 | 36883 ft | 508 kts | 354° |
| 2026-05-04 15:13 | 5.18256 | 37.27534 | 36884 ft | 508 kts | 354° |
| 2026-05-04 15:14 | 5.25270 | 37.26685 | 36880 ft | 508 kts | 354° |
| 2026-05-04 15:14 | 5.32288 | 37.25834 | 36881 ft | 508 kts | 354° |
| 2026-05-04 15:15 | 5.39304 | 37.24985 | 36893 ft | 508 kts | 354° |
| 2026-05-04 15:15 | 5.46319 | 37.24137 | 36901 ft | 508 kts | 354° |
| 2026-05-04 15:16 | 5.56838 | 37.22867 | 36898 ft | 508 kts | 354° |
| 2026-05-04 15:17 | 5.67362 | 37.21597 | 36914 ft | 508 kts | 354° |
| 2026-05-04 15:17 | 5.77881 | 37.20323 | 36932 ft | 508 kts | 354° |
| 2026-05-04 15:18 | 5.84891 | 37.19472 | 36942 ft | 508 kts | 354° |
| 2026-05-04 15:19 | 5.95409 | 37.18194 | 36946 ft | 508 kts | 354° |
| 2026-05-04 15:19 | 6.05932 | 37.16923 | 36948 ft | 508 kts | 354° |
| 2026-05-04 15:20 | 6.12936 | 37.16076 | 36945 ft | 507 kts | 354° |
| 2026-05-04 15:20 | 6.19888 | 37.15229 | 36948 ft | 507 kts | 354° |
| 2026-05-04 15:21 | 6.26889 | 37.14380 | 36945 ft | 507 kts | 354° |
| 2026-05-04 15:22 | 6.37390 | 37.13105 | 36933 ft | 506 kts | 354° |
| 2026-05-04 15:22 | 6.47877 | 37.11832 | 36919 ft | 506 kts | 354° |
| 2026-05-04 15:23 | 6.54868 | 37.10985 | 36916 ft | 506 kts | 354° |
| 2026-05-04 15:23 | 6.61866 | 37.10137 | 36909 ft | 506 kts | 354° |
| 2026-05-04 15:24 | 6.75863 | 37.08438 | 36910 ft | 506 kts | 354° |
| 2026-05-04 15:25 | 6.82856 | 37.07588 | 36920 ft | 507 kts | 354° |
| 2026-05-04 15:26 | 6.93362 | 37.06309 | 36925 ft | 507 kts | 354° |
| 2026-05-04 15:26 | 7.03862 | 37.05032 | 36930 ft | 507 kts | 354° |
| 2026-05-04 15:27 | 7.14368 | 37.03756 | 36935 ft | 506 kts | 354° |
| 2026-05-04 15:28 | 7.24864 | 37.02480 | 36950 ft | 507 kts | 354° |
| 2026-05-04 15:29 | 7.35374 | 37.01195 | 36952 ft | 508 kts | 354° |
| 2026-05-04 15:30 | 7.59931 | 36.98203 | 36955 ft | 510 kts | 354° |
| 2026-05-04 15:31 | 7.70519 | 36.96913 | 36950 ft | 511 kts | 354° |
| 2026-05-04 15:32 | 7.88189 | 36.94756 | 36943 ft | 511 kts | 354° |
| 2026-05-04 15:34 | 8.04657 | 36.92742 | 36937 ft | 512 kts | 354° |
| 2026-05-04 15:34 | 8.15260 | 36.91441 | 36935 ft | 512 kts | 354° |
| 2026-05-04 15:35 | 8.25854 | 36.90149 | 36934 ft | 510 kts | 354° |
| 2026-05-04 15:36 | 8.36427 | 36.88855 | 36939 ft | 510 kts | 353° |
| 2026-05-04 15:36 | 8.43471 | 36.87990 | 36944 ft | 510 kts | 353° |
| 2026-05-04 15:37 | 8.50518 | 36.87128 | 36943 ft | 510 kts | 353° |
| 2026-05-04 15:37 | 8.57581 | 36.86263 | 36944 ft | 512 kts | 353° |
| 2026-05-04 15:38 | 8.64649 | 36.85396 | 36938 ft | 512 kts | 353° |
| 2026-05-04 15:38 | 8.71716 | 36.84528 | 36947 ft | 512 kts | 353° |
| 2026-05-04 15:39 | 8.78788 | 36.83660 | 36948 ft | 512 kts | 353° |
| 2026-05-04 15:40 | 8.89392 | 36.82362 | 36946 ft | 512 kts | 353° |
| 2026-05-04 15:40 | 8.96458 | 36.81493 | 36947 ft | 511 kts | 353° |
| 2026-05-04 15:41 | 9.03523 | 36.80621 | 36945 ft | 512 kts | 353° |
| 2026-05-04 15:41 | 9.10592 | 36.79751 | 36936 ft | 512 kts | 353° |
| 2026-05-04 15:42 | 9.17670 | 36.78883 | 36938 ft | 513 kts | 353° |
| 2026-05-04 15:42 | 9.24761 | 36.78013 | 36930 ft | 513 kts | 353° |
| 2026-05-04 15:43 | 9.31847 | 36.77143 | 36926 ft | 513 kts | 353° |
| 2026-05-04 15:43 | 9.38935 | 36.76270 | 36925 ft | 513 kts | 353° |
| 2026-05-04 15:44 | 9.45978 | 36.75402 | 36927 ft | 513 kts | 352° |
| 2026-05-04 15:44 | 9.53069 | 36.74530 | 36910 ft | 513 kts | 352° |
| 2026-05-04 15:45 | 9.60169 | 36.73655 | 36914 ft | 515 kts | 352° |
| 2026-05-04 15:45 | 9.67279 | 36.72777 | 36914 ft | 514 kts | 352° |
| 2026-05-04 15:46 | 9.74384 | 36.71901 | 36927 ft | 514 kts | 352° |
| 2026-05-04 15:46 | 9.81493 | 36.71023 | 36928 ft | 515 kts | 352° |
| 2026-05-04 15:47 | 9.88597 | 36.70147 | 36935 ft | 515 kts | 352° |
| 2026-05-04 15:47 | 9.95707 | 36.69270 | 36932 ft | 514 kts | 352° |
| 2026-05-04 15:48 | 10.02808 | 36.68387 | 36933 ft | 514 kts | 352° |
| 2026-05-04 15:48 | 10.13448 | 36.67072 | 36913 ft | 513 kts | 352° |
| 2026-05-04 15:49 | 10.20532 | 36.66197 | 36894 ft | 513 kts | 352° |
| 2026-05-04 15:49 | 10.27621 | 36.65321 | 36894 ft | 513 kts | 352° |
| 2026-05-04 15:50 | 10.34711 | 36.64442 | 36878 ft | 514 kts | 352° |
| 2026-05-04 15:50 | 10.41812 | 36.63563 | 36876 ft | 514 kts | 352° |
| 2026-05-04 15:51 | 10.48908 | 36.62684 | 36883 ft | 514 kts | 352° |
| 2026-05-04 15:51 | 10.56002 | 36.61804 | 36894 ft | 514 kts | 352° |
| 2026-05-04 15:52 | 10.63098 | 36.60922 | 36895 ft | 513 kts | 352° |
| 2026-05-04 15:52 | 10.70184 | 36.60041 | 36914 ft | 513 kts | 352° |
| 2026-05-04 15:53 | 10.77269 | 36.59161 | 36915 ft | 513 kts | 352° |
| 2026-05-04 15:53 | 10.84347 | 36.58285 | 36928 ft | 512 kts | 351° |
| 2026-05-04 15:54 | 10.91425 | 36.57406 | 36931 ft | 513 kts | 352° |
| 2026-05-04 15:54 | 10.98503 | 36.56525 | 36931 ft | 512 kts | 352° |
| 2026-05-04 15:55 | 11.05575 | 36.55644 | 36919 ft | 511 kts | 352° |
| 2026-05-04 15:55 | 11.12641 | 36.54764 | 36891 ft | 512 kts | 352° |
| 2026-05-04 15:56 | 11.19665 | 36.53888 | 36885 ft | 512 kts | 351° |
| 2026-05-04 15:56 | 11.26733 | 36.53006 | 36883 ft | 512 kts | 352° |
| 2026-05-04 15:57 | 11.33809 | 36.52124 | 36869 ft | 512 kts | 352° |
| 2026-05-04 15:57 | 11.40884 | 36.51242 | 36853 ft | 512 kts | 352° |
| 2026-05-04 15:58 | 11.47963 | 36.50363 | 36852 ft | 512 kts | 352° |
| 2026-05-04 15:58 | 11.55050 | 36.49482 | 36849 ft | 514 kts | 352° |
| 2026-05-04 15:59 | 11.62145 | 36.48593 | 36848 ft | 514 kts | 352° |
| 2026-05-04 15:59 | 11.69253 | 36.47704 | 36837 ft | 515 kts | 352° |
| 2026-05-04 16:00 | 11.76359 | 36.46814 | 36835 ft | 515 kts | 352° |
| 2026-05-04 16:00 | 11.83468 | 36.45924 | 36835 ft | 515 kts | 352° |
| 2026-05-04 16:01 | 11.90574 | 36.45033 | 36810 ft | 515 kts | 352° |
| 2026-05-04 16:01 | 11.97683 | 36.44143 | 36808 ft | 514 kts | 352° |
| 2026-05-04 16:02 | 12.04789 | 36.43257 | 36810 ft | 514 kts | 352° |
| 2026-05-04 16:03 | 12.15443 | 36.41922 | 36805 ft | 515 kts | 351° |
| 2026-05-04 16:03 | 12.22563 | 36.41028 | 36802 ft | 515 kts | 351° |
| 2026-05-04 16:04 | 12.29678 | 36.40134 | 36794 ft | 515 kts | 351° |
| 2026-05-04 16:04 | 12.40348 | 36.38795 | 36785 ft | 515 kts | 351° |
| 2026-05-04 16:05 | 12.47418 | 36.37904 | 36777 ft | 516 kts | 351° |
| 2026-05-04 16:06 | 12.58102 | 36.36559 | 36774 ft | 516 kts | 351° |
| 2026-05-04 16:07 | 12.72342 | 36.34764 | 36752 ft | 516 kts | 351° |
| 2026-05-04 16:08 | 12.86592 | 36.32972 | 36750 ft | 516 kts | 351° |
| 2026-05-04 16:09 | 13.04387 | 36.30719 | 36747 ft | 515 kts | 351° |
| 2026-05-04 16:10 | 13.18618 | 36.28925 | 36741 ft | 515 kts | 351° |
| 2026-05-04 16:11 | 13.32836 | 36.27126 | 36738 ft | 515 kts | 351° |
| 2026-05-04 16:12 | 13.54166 | 36.24424 | 36727 ft | 515 kts | 351° |
| 2026-05-04 16:13 | 13.68383 | 36.23088 | 36724 ft | 517 kts | 360° |
| 2026-05-04 16:14 | 13.82781 | 36.23871 | 36722 ft | 518 kts | 1° |
| 2026-05-04 16:16 | 14.00779 | 36.25018 | 36720 ft | 518 kts | 1° |
| 2026-05-04 16:17 | 14.18770 | 36.26130 | 36726 ft | 518 kts | 1° |
| 2026-05-04 16:18 | 14.33154 | 36.27019 | 36721 ft | 517 kts | 1° |
| 2026-05-04 16:19 | 14.51130 | 36.28135 | 36722 ft | 518 kts | 1° |
| 2026-05-04 16:20 | 14.69046 | 36.29255 | 36725 ft | 517 kts | 1° |
| 2026-05-04 16:22 | 14.87005 | 36.30368 | 36722 ft | 517 kts | 1° |
| 2026-05-04 16:23 | 15.07383 | 36.31636 | 36725 ft | 517 kts | 1° |
| 2026-05-04 16:25 | 15.28907 | 36.32977 | 36727 ft | 517 kts | 1° |
| 2026-05-04 16:26 | 15.53942 | 36.33816 | 36728 ft | 515 kts | 357° |
| 2026-05-04 16:28 | 15.71866 | 36.33675 | 36727 ft | 515 kts | 358° |
| 2026-05-04 16:29 | 15.96954 | 36.33652 | 36730 ft | 515 kts | 358° |
| 2026-05-04 16:31 | 16.14881 | 36.33625 | 36734 ft | 516 kts | 358° |
| 2026-05-04 16:32 | 16.36385 | 36.33606 | 36735 ft | 515 kts | 358° |
| 2026-05-04 16:33 | 16.50714 | 36.33586 | 36741 ft | 515 kts | 358° |
| 2026-05-04 16:34 | 16.61454 | 36.33571 | 36744 ft | 515 kts | 358° |
| 2026-05-04 16:35 | 16.82909 | 36.33548 | 36754 ft | 515 kts | 358° |
| 2026-05-04 16:36 | 16.93666 | 36.33533 | 36761 ft | 515 kts | 358° |
| 2026-05-04 16:37 | 17.04434 | 36.33521 | 36769 ft | 516 kts | 356° |
| 2026-05-04 16:38 | 17.18802 | 36.33505 | 36768 ft | 517 kts | 358° |
| 2026-05-04 16:39 | 17.36773 | 36.33481 | 36776 ft | 517 kts | 357° |
| 2026-05-04 16:40 | 17.51161 | 36.33462 | 36790 ft | 518 kts | 358° |
| 2026-05-04 16:41 | 17.69157 | 36.33443 | 36796 ft | 517 kts | 357° |
| 2026-05-04 16:43 | 17.87139 | 36.33418 | 36809 ft | 517 kts | 357° |
| 2026-05-04 16:43 | 17.97973 | 36.33402 | 36803 ft | 520 kts | 357° |
| 2026-05-04 16:45 | 18.19695 | 36.33381 | 36815 ft | 521 kts | 357° |
| 2026-05-04 16:46 | 18.37792 | 36.33354 | 36829 ft | 522 kts | 357° |
| 2026-05-04 16:47 | 18.52316 | 36.33336 | 36826 ft | 523 kts | 357° |
| 2026-05-04 16:48 | 18.66862 | 36.33319 | 36841 ft | 523 kts | 357° |
| 2026-05-04 16:49 | 18.81410 | 36.33299 | 36849 ft | 523 kts | 356° |
| 2026-05-04 16:50 | 18.95963 | 36.33282 | 36860 ft | 523 kts | 356° |
| 2026-05-04 16:51 | 19.06868 | 36.33266 | 36862 ft | 522 kts | 356° |
| 2026-05-04 16:52 | 19.21399 | 36.33247 | 36878 ft | 522 kts | 356° |
| 2026-05-04 16:53 | 19.32289 | 36.33237 | 36882 ft | 521 kts | 356° |
| 2026-05-04 16:54 | 19.46791 | 36.33218 | 36881 ft | 521 kts | 356° |
| 2026-05-04 16:55 | 19.68518 | 36.33192 | 36883 ft | 521 kts | 355° |
| 2026-05-04 16:56 | 19.86722 | 36.33166 | 36868 ft | 522 kts | 355° |
| 2026-05-04 16:57 | 19.97573 | 36.33154 | 36862 ft | 523 kts | 355° |
| 2026-05-04 16:58 | 20.12122 | 36.33137 | 36865 ft | 523 kts | 354° |
| 2026-05-04 17:00 | 20.33953 | 36.33104 | 36857 ft | 523 kts | 354° |
| 2026-05-04 17:01 | 20.52150 | 36.33081 | 36849 ft | 523 kts | 354° |
| 2026-05-04 17:02 | 20.66709 | 36.33064 | 36852 ft | 524 kts | 354° |
| 2026-05-04 17:02 | 20.73806 | 36.31963 | 36859 ft | 508 kts | 336° |
| 2026-05-04 17:03 | 20.77039 | 36.30539 | 36863 ft | 499 kts | 326° |
| 2026-05-04 17:03 | 20.85867 | 36.24754 | 36853 ft | 495 kts | 321° |
| 2026-05-04 17:04 | 20.97421 | 36.16639 | 36860 ft | 497 kts | 321° |
| 2026-05-04 17:05 | 21.08998 | 36.08603 | 36868 ft | 496 kts | 321° |
| 2026-05-04 17:06 | 21.17692 | 36.02571 | 36865 ft | 496 kts | 321° |
| 2026-05-04 17:07 | 21.24431 | 35.97890 | 36883 ft | 496 kts | 320° |
| 2026-05-04 17:07 | 21.32158 | 35.92516 | 36880 ft | 494 kts | 320° |
| 2026-05-04 17:08 | 21.39823 | 35.87175 | 36881 ft | 494 kts | 320° |
| 2026-05-04 17:09 | 21.45580 | 35.83157 | 36887 ft | 494 kts | 320° |
| 2026-05-04 17:09 | 21.51334 | 35.79137 | 36889 ft | 494 kts | 320° |
| 2026-05-04 17:10 | 21.65646 | 35.69138 | 36903 ft | 487 kts | 320° |
| 2026-05-04 17:11 | 21.71286 | 35.65185 | 36902 ft | 487 kts | 320° |
| 2026-05-04 17:12 | 21.79801 | 35.59213 | 36920 ft | 487 kts | 320° |
| 2026-05-04 17:13 | 21.93992 | 35.49232 | 36935 ft | 489 kts | 319° |
| 2026-05-04 17:14 | 22.05418 | 35.41226 | 36942 ft | 490 kts | 320° |
| 2026-05-04 17:15 | 22.14019 | 35.35258 | 36957 ft | 490 kts | 320° |
| 2026-05-04 17:16 | 22.25472 | 35.27287 | 36949 ft | 489 kts | 319° |
| 2026-05-04 17:17 | 22.36882 | 35.19323 | 36946 ft | 488 kts | 319° |
| 2026-05-04 17:18 | 22.48265 | 35.11358 | 36944 ft | 487 kts | 319° |
| 2026-05-04 17:19 | 22.59638 | 35.03390 | 36942 ft | 487 kts | 319° |
| 2026-05-04 17:20 | 22.70984 | 34.95422 | 36941 ft | 486 kts | 319° |
| 2026-05-04 17:20 | 22.79446 | 34.89469 | 36941 ft | 486 kts | 319° |
| 2026-05-04 17:21 | 22.90779 | 34.81483 | 36930 ft | 486 kts | 318° |
| 2026-05-04 17:22 | 22.96447 | 34.77483 | 36933 ft | 486 kts | 318° |
| 2026-05-04 17:23 | 23.07775 | 34.69481 | 36933 ft | 485 kts | 318° |
| 2026-05-04 17:24 | 23.16264 | 34.63468 | 36939 ft | 485 kts | 318° |
| 2026-05-04 17:25 | 23.27595 | 34.55438 | 36947 ft | 487 kts | 318° |
| 2026-05-04 17:26 | 23.38939 | 34.47377 | 36976 ft | 487 kts | 318° |
| 2026-05-04 17:27 | 23.53060 | 34.37311 | 36947 ft | 485 kts | 318° |
| 2026-05-04 17:28 | 23.64335 | 34.29252 | 36946 ft | 485 kts | 318° |
| 2026-05-04 17:29 | 23.81233 | 34.17149 | 36970 ft | 484 kts | 318° |
| 2026-05-04 17:31 | 23.95334 | 34.07111 | 36957 ft | 484 kts | 318° |
| 2026-05-04 17:32 | 24.09387 | 33.97085 | 36961 ft | 484 kts | 318° |
| 2026-05-04 17:33 | 24.20639 | 33.89040 | 36963 ft | 482 kts | 318° |
| 2026-05-04 17:34 | 24.31849 | 33.81001 | 36962 ft | 481 kts | 318° |
| 2026-05-04 17:35 | 24.45851 | 33.70943 | 36993 ft | 481 kts | 318° |
| 2026-05-04 17:36 | 24.51446 | 33.66915 | 36955 ft | 480 kts | 318° |
| 2026-05-04 17:36 | 24.57019 | 33.62900 | 36956 ft | 478 kts | 318° |
| 2026-05-04 17:37 | 24.62578 | 33.58885 | 36954 ft | 478 kts | 318° |
| 2026-05-04 17:37 | 24.68137 | 33.54869 | 36956 ft | 478 kts | 318° |
| 2026-05-04 17:38 | 24.73695 | 33.50849 | 36961 ft | 478 kts | 318° |
| 2026-05-04 17:38 | 24.79252 | 33.46826 | 36985 ft | 478 kts | 317° |
| 2026-05-04 17:39 | 24.87586 | 33.40790 | 36968 ft | 478 kts | 317° |
| 2026-05-04 17:39 | 24.93134 | 33.36764 | 36968 ft | 478 kts | 317° |
| 2026-05-04 17:40 | 24.98678 | 33.32734 | 36974 ft | 478 kts | 317° |
| 2026-05-04 17:40 | 25.04222 | 33.28701 | 36973 ft | 477 kts | 317° |
| 2026-05-04 17:41 | 25.09769 | 33.24658 | 36999 ft | 478 kts | 317° |
| 2026-05-04 17:41 | 25.15312 | 33.20620 | 36971 ft | 477 kts | 317° |
| 2026-05-04 17:42 | 25.20851 | 33.16579 | 36974 ft | 477 kts | 317° |
| 2026-05-04 17:42 | 25.26349 | 33.12565 | 36976 ft | 477 kts | 317° |
| 2026-05-04 17:43 | 25.31877 | 33.08522 | 36971 ft | 477 kts | 317° |
| 2026-05-04 17:43 | 25.37410 | 33.04469 | 36975 ft | 477 kts | 317° |
| 2026-05-04 17:44 | 25.42944 | 33.00408 | 36980 ft | 478 kts | 317° |
| 2026-05-04 17:44 | 25.48473 | 32.96356 | 36975 ft | 476 kts | 317° |
| 2026-05-04 17:45 | 25.53992 | 32.92303 | 36979 ft | 476 kts | 317° |
| 2026-05-04 17:45 | 25.59513 | 32.88245 | 36999 ft | 476 kts | 317° |
| 2026-05-04 17:46 | 25.65028 | 32.84185 | 36972 ft | 476 kts | 317° |
| 2026-05-04 17:46 | 25.70533 | 32.80126 | 36964 ft | 475 kts | 317° |
| 2026-05-04 17:47 | 25.75650 | 32.75658 | 36972 ft | 460 kts | 306° |
| 2026-05-04 17:47 | 25.79875 | 32.70401 | 36968 ft | 455 kts | 302° |
| 2026-05-04 17:48 | 25.83917 | 32.65014 | 36970 ft | 454 kts | 301° |
| 2026-05-04 17:48 | 25.87925 | 32.59615 | 36974 ft | 452 kts | 301° |
| 2026-05-04 17:49 | 25.91934 | 32.54242 | 36981 ft | 451 kts | 302° |
| 2026-05-04 17:49 | 25.95921 | 32.48901 | 36988 ft | 452 kts | 302° |
| 2026-05-04 17:50 | 25.99948 | 32.43521 | 36987 ft | 453 kts | 302° |
| 2026-05-04 17:50 | 26.03973 | 32.38136 | 36988 ft | 453 kts | 302° |
| 2026-05-04 17:51 | 26.07992 | 32.32746 | 36990 ft | 453 kts | 302° |
| 2026-05-04 17:51 | 26.12012 | 32.27347 | 36995 ft | 453 kts | 302° |
| 2026-05-04 17:52 | 26.16027 | 32.21951 | 36988 ft | 452 kts | 302° |
| 2026-05-04 17:52 | 26.20035 | 32.16557 | 36993 ft | 452 kts | 302° |
| 2026-05-04 17:53 | 26.24038 | 32.11160 | 36991 ft | 452 kts | 302° |
| 2026-05-04 17:53 | 26.28041 | 32.05761 | 36995 ft | 452 kts | 302° |
| 2026-05-04 17:54 | 26.32044 | 32.00356 | 36996 ft | 452 kts | 302° |
| 2026-05-04 17:54 | 26.36043 | 31.94946 | 37004 ft | 452 kts | 302° |
| 2026-05-04 17:55 | 26.40040 | 31.89535 | 37001 ft | 452 kts | 302° |
| 2026-05-04 17:55 | 26.44035 | 31.84122 | 36991 ft | 452 kts | 302° |
| 2026-05-04 17:56 | 26.48029 | 31.78706 | 37006 ft | 452 kts | 302° |
| 2026-05-04 17:56 | 26.52015 | 31.73288 | 37038 ft | 451 kts | 302° |
| 2026-05-04 17:57 | 26.55999 | 31.67870 | 37013 ft | 451 kts | 302° |
| 2026-05-04 17:57 | 26.59304 | 31.63365 | 37018 ft | 451 kts | 302° |
| 2026-05-04 17:58 | 26.63279 | 31.57945 | 37038 ft | 451 kts | 302° |
| 2026-05-04 17:58 | 26.67249 | 31.52526 | 37045 ft | 451 kts | 302° |
| 2026-05-04 17:59 | 26.71221 | 31.47099 | 37069 ft | 451 kts | 302° |
| 2026-05-04 18:00 | 26.77174 | 31.38947 | 37086 ft | 451 kts | 302° |
| 2026-05-04 18:00 | 26.81141 | 31.33509 | 37089 ft | 451 kts | 302° |
| 2026-05-04 18:01 | 26.85110 | 31.28064 | 37114 ft | 452 kts | 302° |
| 2026-05-04 18:01 | 26.89075 | 31.22618 | 37122 ft | 451 kts | 302° |
| 2026-05-04 18:02 | 26.95012 | 31.14444 | 37128 ft | 451 kts | 302° |
| 2026-05-04 18:02 | 26.99419 | 31.09352 | 37131 ft | 464 kts | 314° |
| 2026-05-04 18:03 | 27.05132 | 31.05704 | 37130 ft | 486 kts | 331° |
| 2026-05-04 18:03 | 27.08432 | 31.04677 | 37130 ft | 500 kts | 341° |
| 2026-05-04 18:03 | 27.11938 | 31.04297 | 37130 ft | 515 kts | 351° |
| 2026-05-04 18:04 | 27.19168 | 31.04832 | 37130 ft | 524 kts | 357° |
| 2026-05-04 18:05 | 27.30046 | 31.06153 | 37127 ft | 524 kts | 357° |
| 2026-05-04 18:05 | 27.37249 | 31.06996 | 37131 ft | 524 kts | 357° |
| 2026-05-04 18:06 | 27.48115 | 31.08202 | 37146 ft | 523 kts | 357° |
| 2026-05-04 18:06 | 27.55344 | 31.09002 | 37121 ft | 522 kts | 357° |
| 2026-05-04 18:07 | 27.62566 | 31.09804 | 37118 ft | 521 kts | 357° |
| 2026-05-04 18:07 | 27.69789 | 31.10602 | 37118 ft | 522 kts | 357° |
| 2026-05-04 18:08 | 27.77012 | 31.11407 | 37121 ft | 521 kts | 357° |
| 2026-05-04 18:08 | 27.84233 | 31.12213 | 37119 ft | 521 kts | 357° |
| 2026-05-04 18:09 | 27.98670 | 31.13825 | 37131 ft | 521 kts | 357° |
| 2026-05-04 18:10 | 28.05877 | 31.14635 | 37112 ft | 520 kts | 357° |
| 2026-05-04 18:10 | 28.13031 | 31.15440 | 37110 ft | 520 kts | 357° |
| 2026-05-04 18:11 | 28.20233 | 31.16240 | 37145 ft | 520 kts | 357° |
| 2026-05-04 18:11 | 28.27427 | 31.17040 | 37113 ft | 520 kts | 356° |
| 2026-05-04 18:12 | 28.34616 | 31.17846 | 37107 ft | 519 kts | 356° |
| 2026-05-04 18:12 | 28.41801 | 31.18653 | 37108 ft | 519 kts | 357° |
| 2026-05-04 18:13 | 28.48985 | 31.19461 | 37110 ft | 518 kts | 356° |
| 2026-05-04 18:14 | 28.59724 | 31.20668 | 37105 ft | 517 kts | 356° |
| 2026-05-04 18:14 | 28.66880 | 31.21478 | 37100 ft | 517 kts | 356° |
| 2026-05-04 18:15 | 28.81184 | 31.23162 | 37097 ft | 516 kts | 357° |
| 2026-05-04 18:16 | 28.88326 | 31.24035 | 37099 ft | 516 kts | 357° |
| 2026-05-04 18:16 | 28.95470 | 31.24905 | 37112 ft | 517 kts | 357° |
| 2026-05-04 18:17 | 29.06215 | 31.26206 | 37098 ft | 518 kts | 357° |
| 2026-05-04 18:18 | 29.16951 | 31.27512 | 37100 ft | 518 kts | 357° |
| 2026-05-04 18:18 | 29.24111 | 31.28382 | 37100 ft | 517 kts | 357° |
| 2026-05-04 18:19 | 29.34832 | 31.29691 | 37096 ft | 517 kts | 357° |
| 2026-05-04 18:19 | 29.41984 | 31.30551 | 37096 ft | 516 kts | 356° |
| 2026-05-04 18:20 | 29.49106 | 31.31051 | 37097 ft | 512 kts | 353° |
| 2026-05-04 18:20 | 29.56220 | 31.31398 | 37097 ft | 512 kts | 353° |
| 2026-05-04 18:21 | 29.63290 | 31.31773 | 37096 ft | 512 kts | 354° |
| 2026-05-04 18:21 | 29.70414 | 31.32203 | 37098 ft | 512 kts | 354° |
| 2026-05-04 18:22 | 29.77529 | 31.32659 | 37095 ft | 512 kts | 354° |
| 2026-05-04 18:22 | 29.84649 | 31.33113 | 37098 ft | 512 kts | 354° |
| 2026-05-04 18:23 | 29.91771 | 31.33563 | 37125 ft | 513 kts | 354° |
| 2026-05-04 18:23 | 29.98884 | 31.34011 | 37101 ft | 512 kts | 354° |
| 2026-05-04 18:24 | 30.06003 | 31.34457 | 37103 ft | 512 kts | 354° |
| 2026-05-04 18:24 | 30.13122 | 31.34904 | 37103 ft | 513 kts | 354° |
| 2026-05-04 18:25 | 30.20201 | 31.35357 | 37103 ft | 512 kts | 354° |
| 2026-05-04 18:25 | 30.27317 | 31.35812 | 37093 ft | 512 kts | 354° |
| 2026-05-04 18:26 | 30.34426 | 31.36266 | 37093 ft | 512 kts | 354° |
| 2026-05-04 18:26 | 30.41538 | 31.36720 | 37113 ft | 512 kts | 354° |
| 2026-05-04 18:27 | 30.48646 | 31.37170 | 37088 ft | 512 kts | 354° |
| 2026-05-04 18:27 | 30.55754 | 31.37622 | 37099 ft | 512 kts | 354° |
| 2026-05-04 18:28 | 30.62861 | 31.38077 | 37125 ft | 511 kts | 354° |
| 2026-05-04 18:28 | 30.69966 | 31.38532 | 37097 ft | 511 kts | 354° |
| 2026-05-04 18:29 | 30.77064 | 31.38986 | 37096 ft | 511 kts | 354° |
| 2026-05-04 18:29 | 30.84164 | 31.39439 | 37099 ft | 511 kts | 354° |
| 2026-05-04 18:30 | 30.94810 | 31.40125 | 37100 ft | 510 kts | 355° |
| 2026-05-04 18:31 | 31.01895 | 31.40582 | 37095 ft | 510 kts | 355° |
| 2026-05-04 18:31 | 31.08977 | 31.41037 | 37094 ft | 510 kts | 355° |
| 2026-05-04 18:32 | 31.16017 | 31.41491 | 37091 ft | 510 kts | 355° |
| 2026-05-04 18:32 | 31.23103 | 31.41913 | 37088 ft | 507 kts | 352° |
| 2026-05-04 18:33 | 31.30022 | 31.41170 | 37091 ft | 496 kts | 344° |
| 2026-05-04 18:33 | 31.36846 | 31.39963 | 37095 ft | 495 kts | 343° |
| 2026-05-04 18:34 | 31.43645 | 31.38675 | 37089 ft | 494 kts | 343° |
| 2026-05-04 18:34 | 31.50444 | 31.37389 | 37088 ft | 495 kts | 343° |
| 2026-05-04 18:35 | 31.57251 | 31.36129 | 37087 ft | 496 kts | 344° |
| 2026-05-04 18:35 | 31.64157 | 31.35336 | 37090 ft | 500 kts | 347° |
| 2026-05-04 18:36 | 31.71102 | 31.34746 | 37092 ft | 501 kts | 347° |
| 2026-05-04 18:36 | 31.78045 | 31.34100 | 37082 ft | 500 kts | 347° |
| 2026-05-04 18:37 | 31.84969 | 31.33396 | 37087 ft | 499 kts | 347° |
| 2026-05-04 18:37 | 31.91890 | 31.32675 | 37093 ft | 499 kts | 346° |
| 2026-05-04 18:38 | 31.98805 | 31.31934 | 37081 ft | 499 kts | 347° |
| 2026-05-04 18:38 | 32.05670 | 31.31199 | 37088 ft | 499 kts | 347° |
| 2026-05-04 18:39 | 32.12591 | 31.30466 | 37075 ft | 500 kts | 346° |
| 2026-05-04 18:39 | 32.19515 | 31.29727 | 37077 ft | 500 kts | 346° |
| 2026-05-04 18:40 | 32.26443 | 31.28981 | 37072 ft | 500 kts | 346° |
| 2026-05-04 18:40 | 32.33369 | 31.28229 | 37087 ft | 499 kts | 346° |
| 2026-05-04 18:41 | 32.40289 | 31.27483 | 37070 ft | 500 kts | 346° |
| 2026-05-04 18:41 | 32.47211 | 31.26736 | 37064 ft | 499 kts | 346° |
| 2026-05-04 18:42 | 32.54123 | 31.25949 | 37063 ft | 496 kts | 343° |
| 2026-05-04 18:42 | 32.60627 | 31.23827 | 37070 ft | 477 kts | 329° |
| 2026-05-04 18:43 | 32.66616 | 31.20557 | 37055 ft | 472 kts | 327° |
| 2026-05-04 18:43 | 32.72495 | 31.17101 | 37056 ft | 471 kts | 326° |
| 2026-05-04 18:44 | 32.78358 | 31.13622 | 37048 ft | 471 kts | 326° |
| 2026-05-04 18:44 | 32.84195 | 31.10184 | 37057 ft | 472 kts | 327° |
| 2026-05-04 18:45 | 32.90121 | 31.06707 | 37043 ft | 472 kts | 327° |
| 2026-05-04 18:45 | 32.96012 | 31.03252 | 37042 ft | 472 kts | 327° |
| 2026-05-04 18:46 | 33.01862 | 30.99811 | 37038 ft | 472 kts | 327° |
| 2026-05-04 18:46 | 33.07881 | 30.96509 | 37040 ft | 479 kts | 333° |
| 2026-05-04 18:47 | 33.14447 | 30.94887 | 37043 ft | 493 kts | 348° |
| 2026-05-04 18:47 | 33.21329 | 30.94462 | 37035 ft | 496 kts | 351° |
| 2026-05-04 18:48 | 33.28239 | 30.94254 | 37035 ft | 497 kts | 351° |
| 2026-05-04 18:48 | 33.35154 | 30.94047 | 37035 ft | 496 kts | 351° |
| 2026-05-04 18:49 | 33.42053 | 30.93804 | 37026 ft | 496 kts | 351° |
| 2026-05-04 18:49 | 33.48946 | 30.93541 | 37023 ft | 496 kts | 351° |
| 2026-05-04 18:50 | 33.55837 | 30.93278 | 37062 ft | 495 kts | 351° |
| 2026-05-04 18:50 | 33.61614 | 30.93057 | 37018 ft | 496 kts | 351° |
| 2026-05-04 18:51 | 33.68514 | 30.92795 | 37012 ft | 496 kts | 351° |
| 2026-05-04 18:51 | 33.75365 | 30.92532 | 37004 ft | 496 kts | 351° |
| 2026-05-04 18:52 | 33.82266 | 30.92271 | 37008 ft | 496 kts | 352° |
| 2026-05-04 18:52 | 33.89170 | 30.92011 | 36999 ft | 496 kts | 352° |
| 2026-05-04 18:53 | 33.96076 | 30.91748 | 36993 ft | 497 kts | 352° |
| 2026-05-04 18:53 | 34.02975 | 30.91404 | 37010 ft | 496 kts | 351° |
| 2026-05-04 18:54 | 34.09861 | 30.90995 | 36987 ft | 496 kts | 351° |
| 2026-05-04 18:54 | 34.16748 | 30.90590 | 36985 ft | 495 kts | 351° |
| 2026-05-04 18:55 | 34.23636 | 30.90203 | 36973 ft | 495 kts | 351° |
| 2026-05-04 18:55 | 34.33977 | 30.89684 | 36976 ft | 496 kts | 351° |
| 2026-05-04 18:56 | 34.40870 | 30.89354 | 36970 ft | 495 kts | 351° |
| 2026-05-04 18:56 | 34.47761 | 30.89019 | 36989 ft | 496 kts | 352° |
| 2026-05-04 18:57 | 34.54665 | 30.88679 | 36962 ft | 497 kts | 352° |
| 2026-05-04 18:57 | 34.61575 | 30.88339 | 36961 ft | 497 kts | 352° |
| 2026-05-04 18:58 | 34.68494 | 30.88058 | 36952 ft | 498 kts | 353° |
| 2026-05-04 18:58 | 34.75423 | 30.87852 | 36944 ft | 498 kts | 353° |
| 2026-05-04 18:59 | 34.82350 | 30.87644 | 36944 ft | 498 kts | 353° |
| 2026-05-04 18:59 | 34.89278 | 30.87423 | 36938 ft | 498 kts | 353° |
| 2026-05-04 19:00 | 34.96158 | 30.87194 | 36937 ft | 498 kts | 354° |
| 2026-05-04 19:00 | 35.03091 | 30.86963 | 36930 ft | 499 kts | 354° |
| 2026-05-04 19:01 | 35.10023 | 30.86732 | 36922 ft | 498 kts | 354° |
| 2026-05-04 19:01 | 35.16948 | 30.86499 | 36925 ft | 498 kts | 354° |
| 2026-05-04 19:02 | 35.23870 | 30.86272 | 36922 ft | 497 kts | 354° |
| 2026-05-04 19:02 | 35.30788 | 30.86039 | 36921 ft | 497 kts | 354° |
| 2026-05-04 19:03 | 35.37700 | 30.85807 | 36929 ft | 497 kts | 354° |
| 2026-05-04 19:03 | 35.44619 | 30.85574 | 36919 ft | 498 kts | 354° |
| 2026-05-04 19:04 | 35.51542 | 30.85344 | 36918 ft | 498 kts | 354° |
| 2026-05-04 19:04 | 35.58466 | 30.85108 | 36933 ft | 498 kts | 355° |
| 2026-05-04 19:05 | 35.65397 | 30.84843 | 36913 ft | 498 kts | 354° |
| 2026-05-04 19:05 | 35.72314 | 30.84417 | 36919 ft | 498 kts | 353° |
| 2026-05-04 19:06 | 35.79228 | 30.83961 | 36919 ft | 498 kts | 353° |
| 2026-05-04 19:06 | 35.86144 | 30.83530 | 36923 ft | 497 kts | 354° |
| 2026-05-04 19:07 | 35.93055 | 30.83113 | 36920 ft | 497 kts | 354° |
| 2026-05-04 19:07 | 35.99964 | 30.82695 | 36918 ft | 497 kts | 354° |
| 2026-05-04 19:08 | 36.06870 | 30.82294 | 36914 ft | 496 kts | 355° |
| 2026-05-04 19:08 | 36.13727 | 30.82060 | 36916 ft | 496 kts | 355° |
| 2026-05-04 19:09 | 36.20626 | 30.81870 | 36916 ft | 496 kts | 355° |
| 2026-05-04 19:09 | 36.27527 | 30.81662 | 36920 ft | 495 kts | 355° |
| 2026-05-04 19:10 | 36.34424 | 30.81435 | 36971 ft | 496 kts | 355° |
| 2026-05-04 19:10 | 36.37874 | 30.81319 | 37115 ft | 494 kts | 355° |
| 2026-05-04 19:10 | 36.41289 | 30.81206 | 37648 ft | 486 kts | 355° |
| 2026-05-04 19:11 | 36.44654 | 30.81095 | 38102 ft | 482 kts | 355° |
| 2026-05-04 19:11 | 36.48000 | 30.80925 | 38373 ft | 480 kts | 352° |
| 2026-05-04 19:11 | 36.51298 | 30.80367 | 38559 ft | 479 kts | 346° |
| 2026-05-04 19:11 | 36.54565 | 30.79579 | 38740 ft | 478 kts | 346° |
| 2026-05-04 19:12 | 36.57819 | 30.78745 | 38920 ft | 477 kts | 345° |
| 2026-05-04 19:12 | 36.64326 | 30.77048 | 39198 ft | 479 kts | 345° |
| 2026-05-04 19:12 | 36.67583 | 30.76193 | 39384 ft | 478 kts | 346° |
| 2026-05-04 19:13 | 36.70835 | 30.75336 | 39590 ft | 476 kts | 346° |
| 2026-05-04 19:13 | 36.74074 | 30.74485 | 39762 ft | 476 kts | 346° |
| 2026-05-04 19:13 | 36.77320 | 30.73629 | 39858 ft | 477 kts | 346° |
| 2026-05-04 19:14 | 36.83830 | 30.71909 | 39968 ft | 479 kts | 346° |
| 2026-05-04 19:14 | 36.90339 | 30.70187 | 39965 ft | 478 kts | 346° |
| 2026-05-04 19:15 | 36.96832 | 30.68467 | 39966 ft | 477 kts | 345° |
| 2026-05-04 19:15 | 37.03321 | 30.66744 | 39965 ft | 476 kts | 345° |
| 2026-05-04 19:16 | 37.09801 | 30.65020 | 39965 ft | 476 kts | 345° |
| 2026-05-04 19:16 | 37.16291 | 30.63289 | 39963 ft | 478 kts | 345° |
| 2026-05-04 19:17 | 37.22816 | 30.61547 | 39981 ft | 481 kts | 345° |
| 2026-05-04 19:17 | 37.29362 | 30.59798 | 39982 ft | 481 kts | 345° |
| 2026-05-04 19:18 | 37.35863 | 30.58057 | 39990 ft | 481 kts | 345° |
| 2026-05-04 19:18 | 37.42410 | 30.56299 | 39992 ft | 482 kts | 345° |
| 2026-05-04 19:19 | 37.48964 | 30.54538 | 39992 ft | 482 kts | 345° |
| 2026-05-04 19:19 | 37.55522 | 30.52771 | 39996 ft | 482 kts | 345° |
| 2026-05-04 19:20 | 37.62073 | 30.51003 | 40016 ft | 480 kts | 346° |
| 2026-05-04 19:20 | 37.68589 | 30.49244 | 40020 ft | 478 kts | 346° |
| 2026-05-04 19:21 | 37.75090 | 30.47483 | 40021 ft | 478 kts | 346° |
| 2026-05-04 19:21 | 37.81577 | 30.45722 | 40026 ft | 477 kts | 346° |
| 2026-05-04 19:22 | 37.88039 | 30.43968 | 40020 ft | 473 kts | 346° |
| 2026-05-04 19:22 | 37.94463 | 30.42219 | 40021 ft | 472 kts | 346° |
| 2026-05-04 19:23 | 38.00887 | 30.40469 | 40022 ft | 472 kts | 346° |
| 2026-05-04 19:23 | 38.07309 | 30.38714 | 40029 ft | 472 kts | 346° |
| 2026-05-04 19:24 | 38.13732 | 30.36954 | 40031 ft | 472 kts | 346° |
| 2026-05-04 19:24 | 38.20161 | 30.35190 | 40030 ft | 472 kts | 346° |
| 2026-05-04 19:25 | 38.26580 | 30.33426 | 40036 ft | 472 kts | 346° |
| 2026-05-04 19:25 | 38.33003 | 30.31658 | 40034 ft | 473 kts | 346° |
| 2026-05-04 19:26 | 38.39435 | 30.29887 | 40036 ft | 473 kts | 346° |
| 2026-05-04 19:26 | 38.45863 | 30.28113 | 40035 ft | 473 kts | 346° |
| 2026-05-04 19:27 | 38.52304 | 30.26332 | 40034 ft | 475 kts | 346° |
| 2026-05-04 19:27 | 38.58771 | 30.24539 | 40035 ft | 476 kts | 346° |
| 2026-05-04 19:28 | 38.65202 | 30.22753 | 40040 ft | 476 kts | 346° |
| 2026-05-04 19:28 | 38.71666 | 30.20956 | 40039 ft | 476 kts | 346° |
| 2026-05-04 19:29 | 38.78133 | 30.19151 | 40038 ft | 475 kts | 346° |
| 2026-05-04 19:29 | 38.84595 | 30.17345 | 40038 ft | 476 kts | 346° |
| 2026-05-04 19:30 | 38.91059 | 30.15537 | 40039 ft | 475 kts | 346° |
| 2026-05-04 19:30 | 38.97523 | 30.13725 | 40035 ft | 475 kts | 346° |
| 2026-05-04 19:31 | 39.03988 | 30.11913 | 40035 ft | 475 kts | 346° |
| 2026-05-04 19:31 | 39.10447 | 30.10094 | 40037 ft | 474 kts | 347° |
| 2026-05-04 19:32 | 39.16883 | 30.08280 | 40044 ft | 472 kts | 347° |
| 2026-05-04 19:32 | 39.23297 | 30.06470 | 40044 ft | 472 kts | 347° |
| 2026-05-04 19:32 | 39.26499 | 30.05565 | 39922 ft | 470 kts | 347° |
| 2026-05-04 19:33 | 39.29673 | 30.04668 | 39446 ft | 466 kts | 347° |
| 2026-05-04 19:33 | 39.32837 | 30.03771 | 38850 ft | 466 kts | 347° |
| 2026-05-04 19:33 | 39.36005 | 30.02872 | 38102 ft | 466 kts | 347° |
| 2026-05-04 19:33 | 39.39168 | 30.01973 | 37451 ft | 465 kts | 347° |
| 2026-05-04 19:34 | 39.42317 | 30.01077 | 36803 ft | 463 kts | 347° |
| 2026-05-04 19:34 | 39.45456 | 30.00184 | 36140 ft | 461 kts | 348° |
| 2026-05-04 19:34 | 39.48587 | 29.99293 | 35464 ft | 460 kts | 348° |
| 2026-05-04 19:34 | 39.51713 | 29.98401 | 34752 ft | 460 kts | 348° |
| 2026-05-04 19:35 | 39.54839 | 29.97510 | 33983 ft | 461 kts | 349° |
| 2026-05-04 19:35 | 39.57971 | 29.96613 | 33168 ft | 460 kts | 349° |
| 2026-05-04 19:35 | 39.61066 | 29.95726 | 32660 ft | 452 kts | 350° |
| 2026-05-04 19:35 | 39.64114 | 29.94854 | 32168 ft | 445 kts | 350° |
| 2026-05-04 19:36 | 39.67113 | 29.93997 | 31660 ft | 438 kts | 351° |
| 2026-05-04 19:36 | 39.70067 | 29.93153 | 31169 ft | 431 kts | 351° |
| 2026-05-04 19:36 | 39.72939 | 29.92330 | 30694 ft | 426 kts | 351° |
| 2026-05-04 19:36 | 39.75811 | 29.91505 | 30220 ft | 420 kts | 352° |
| 2026-05-04 19:37 | 39.78646 | 29.90691 | 29691 ft | 414 kts | 351° |
| 2026-05-04 19:37 | 39.81431 | 29.89890 | 29237 ft | 407 kts | 351° |
| 2026-05-04 19:37 | 39.84149 | 29.89105 | 29087 ft | 393 kts | 351° |
| 2026-05-04 19:37 | 39.86771 | 29.88347 | 28938 ft | 380 kts | 352° |
| 2026-05-04 19:38 | 39.89338 | 29.87609 | 28474 ft | 376 kts | 352° |
| 2026-05-04 19:38 | 39.91886 | 29.87079 | 27971 ft | 367 kts | 359° |
| 2026-05-04 19:38 | 39.94416 | 29.86982 | 27633 ft | 362 kts | 2° |
| 2026-05-04 19:38 | 39.96937 | 29.86976 | 27295 ft | 362 kts | 2° |
| 2026-05-04 19:39 | 39.99454 | 29.86976 | 26964 ft | 361 kts | 2° |
| 2026-05-04 19:39 | 40.01150 | 29.86976 | 26746 ft | 360 kts | 2° |
| 2026-05-04 19:39 | 40.03649 | 29.86976 | 26416 ft | 358 kts | 2° |
| 2026-05-04 19:39 | 40.06133 | 29.86973 | 26077 ft | 356 kts | 2° |
| 2026-05-04 19:40 | 40.08606 | 29.86970 | 25767 ft | 355 kts | 2° |
| 2026-05-04 19:40 | 40.11036 | 29.86967 | 25443 ft | 353 kts | 2° |
| 2026-05-04 19:40 | 40.13486 | 29.86964 | 25123 ft | 351 kts | 2° |
| 2026-05-04 19:40 | 40.15957 | 29.86961 | 24785 ft | 350 kts | 2° |
| 2026-05-04 19:41 | 40.18382 | 29.86957 | 24480 ft | 348 kts | 2° |
| 2026-05-04 19:41 | 40.20797 | 29.86957 | 24165 ft | 347 kts | 2° |
| 2026-05-04 19:41 | 40.23174 | 29.86947 | 23850 ft | 345 kts | 2° |
| 2026-05-04 19:41 | 40.25569 | 29.86940 | 23521 ft | 344 kts | 2° |
| 2026-05-04 19:42 | 40.27965 | 29.86934 | 23184 ft | 343 kts | 2° |
| 2026-05-04 19:42 | 40.30348 | 29.86932 | 22867 ft | 342 kts | 2° |
| 2026-05-04 19:42 | 40.32724 | 29.86930 | 22548 ft | 340 kts | 2° |
| 2026-05-04 19:42 | 40.35084 | 29.86926 | 22242 ft | 339 kts | 2° |
| 2026-05-04 19:43 | 40.37439 | 29.86912 | 21964 ft | 336 kts | 2° |
| 2026-05-04 19:43 | 40.39731 | 29.87019 | 21764 ft | 324 kts | 8° |
| 2026-05-04 19:43 | 40.41851 | 29.87760 | 21552 ft | 311 kts | 23° |
| 2026-05-04 19:43 | 40.43706 | 29.89143 | 21308 ft | 302 kts | 32° |
| 2026-05-04 19:44 | 40.45407 | 29.90685 | 20980 ft | 296 kts | 33° |
| 2026-05-04 19:44 | 40.47096 | 29.92250 | 20728 ft | 298 kts | 33° |
| 2026-05-04 19:44 | 40.48796 | 29.93820 | 20472 ft | 299 kts | 33° |
| 2026-05-04 19:44 | 40.50497 | 29.95368 | 20172 ft | 294 kts | 31° |
| 2026-05-04 19:45 | 40.52316 | 29.96528 | 19910 ft | 293 kts | 17° |
| 2026-05-04 19:45 | 40.54335 | 29.96949 | 19528 ft | 295 kts | 4° |
| 2026-05-04 19:45 | 40.56393 | 29.96978 | 19177 ft | 296 kts | 2° |
| 2026-05-04 19:45 | 40.58457 | 29.96954 | 18918 ft | 297 kts | 1° |
| 2026-05-04 19:46 | 40.60520 | 29.96945 | 18623 ft | 296 kts | 2° |
| 2026-05-04 19:46 | 40.62580 | 29.96937 | 18347 ft | 295 kts | 2° |
| 2026-05-04 19:46 | 40.64634 | 29.96930 | 18053 ft | 295 kts | 2° |
| 2026-05-04 19:46 | 40.66682 | 29.96887 | 17777 ft | 294 kts | 358° |
| 2026-05-04 19:47 | 40.68695 | 29.96368 | 17515 ft | 296 kts | 346° |
| 2026-05-04 19:47 | 40.70647 | 29.95508 | 17237 ft | 296 kts | 344° |
| 2026-05-04 19:47 | 40.72584 | 29.94603 | 16959 ft | 295 kts | 344° |
| 2026-05-04 19:47 | 40.74511 | 29.93701 | 16691 ft | 294 kts | 344° |
| 2026-05-04 19:48 | 40.76434 | 29.92805 | 16428 ft | 293 kts | 345° |
| 2026-05-04 19:48 | 40.78353 | 29.91917 | 16154 ft | 291 kts | 344° |
| 2026-05-04 19:48 | 40.80261 | 29.91032 | 15886 ft | 290 kts | 344° |
| 2026-05-04 19:48 | 40.82160 | 29.90151 | 15625 ft | 288 kts | 344° |
| 2026-05-04 19:49 | 40.83991 | 29.89176 | 15358 ft | 291 kts | 336° |
| 2026-05-04 19:49 | 40.85597 | 29.87515 | 15098 ft | 298 kts | 315° |
| 2026-05-04 19:49 | 40.86615 | 29.85112 | 14818 ft | 308 kts | 292° |
| 2026-05-04 19:49 | 40.86903 | 29.82273 | 14515 ft | 317 kts | 276° |
| 2026-05-04 19:50 | 40.86874 | 29.79365 | 14227 ft | 317 kts | 273° |
| 2026-05-04 19:50 | 40.86808 | 29.76461 | 13944 ft | 317 kts | 273° |
| 2026-05-04 19:50 | 40.86749 | 29.73560 | 13639 ft | 315 kts | 274° |
| 2026-05-04 19:50 | 40.86700 | 29.70677 | 13337 ft | 313 kts | 274° |
| 2026-05-04 19:51 | 40.86654 | 29.67815 | 13061 ft | 311 kts | 274° |
| 2026-05-04 19:51 | 40.86626 | 29.64956 | 12823 ft | 309 kts | 276° |
| 2026-05-04 19:51 | 40.86766 | 29.62149 | 12567 ft | 304 kts | 281° |
| 2026-05-04 19:51 | 40.86982 | 29.59381 | 12316 ft | 302 kts | 281° |
| 2026-05-04 19:52 | 40.87205 | 29.56632 | 12058 ft | 300 kts | 281° |
| 2026-05-04 19:52 | 40.87423 | 29.53903 | 11810 ft | 298 kts | 281° |
| 2026-05-04 19:52 | 40.87638 | 29.51181 | 11537 ft | 298 kts | 282° |
| 2026-05-04 19:52 | 40.87853 | 29.48468 | 11291 ft | 295 kts | 282° |
| 2026-05-04 19:53 | 40.88066 | 29.45764 | 11043 ft | 295 kts | 282° |
| 2026-05-04 19:53 | 40.88274 | 29.43079 | 10798 ft | 293 kts | 282° |
| 2026-05-04 19:53 | 40.88480 | 29.40407 | 10553 ft | 291 kts | 282° |
| 2026-05-04 19:53 | 40.88687 | 29.37749 | 10320 ft | 290 kts | 282° |
| 2026-05-04 19:54 | 40.88890 | 29.35110 | 10078 ft | 288 kts | 282° |
| 2026-05-04 19:54 | 40.89089 | 29.32475 | 10001 ft | 288 kts | 283° |
| 2026-05-04 19:54 | 40.89291 | 29.29841 | 9991 ft | 288 kts | 283° |
| 2026-05-04 19:54 | 40.89489 | 29.27219 | 9991 ft | 287 kts | 283° |
| 2026-05-04 19:55 | 40.89691 | 29.24592 | 9971 ft | 288 kts | 283° |
| 2026-05-04 19:55 | 40.89892 | 29.21946 | 9991 ft | 291 kts | 283° |
| 2026-05-04 19:55 | 40.90096 | 29.19279 | 9930 ft | 292 kts | 283° |
| 2026-05-04 19:55 | 40.90294 | 29.16635 | 9768 ft | 289 kts | 283° |
| 2026-05-04 19:56 | 40.90494 | 29.13982 | 9485 ft | 290 kts | 283° |
| 2026-05-04 19:56 | 40.90690 | 29.11342 | 9182 ft | 288 kts | 283° |
| 2026-05-04 19:56 | 40.90884 | 29.08714 | 8873 ft | 286 kts | 283° |
| 2026-05-04 19:56 | 40.91077 | 29.06112 | 8564 ft | 283 kts | 283° |
| 2026-05-04 19:57 | 40.91267 | 29.03523 | 8267 ft | 282 kts | 283° |
| 2026-05-04 19:57 | 40.91456 | 29.00954 | 7961 ft | 280 kts | 283° |
| 2026-05-04 19:57 | 40.91642 | 28.98400 | 7668 ft | 278 kts | 283° |
| 2026-05-04 19:57 | 40.91828 | 28.95868 | 7369 ft | 275 kts | 283° |
| 2026-05-04 19:58 | 40.92014 | 28.93369 | 7076 ft | 273 kts | 283° |
| 2026-05-04 19:58 | 40.92198 | 28.90870 | 6788 ft | 272 kts | 282° |
| 2026-05-04 19:58 | 40.92381 | 28.88385 | 6503 ft | 270 kts | 282° |
| 2026-05-04 19:58 | 40.92558 | 28.85927 | 6260 ft | 265 kts | 282° |
| 2026-05-04 19:59 | 40.92724 | 28.83567 | 6138 ft | 252 kts | 282° |
| 2026-05-04 19:59 | 40.92936 | 28.81336 | 6007 ft | 236 kts | 290° |
| 2026-05-04 19:59 | 40.93583 | 28.79489 | 5874 ft | 211 kts | 315° |
| 2026-05-04 19:59 | 40.94652 | 28.78275 | 5770 ft | 200 kts | 332° |
| 2026-05-04 20:00 | 40.95860 | 28.77381 | 5579 ft | 198 kts | 339° |
| 2026-05-04 20:00 | 40.97136 | 28.76724 | 5374 ft | 196 kts | 346° |
| 2026-05-04 20:00 | 40.98459 | 28.76314 | 5148 ft | 195 kts | 353° |
| 2026-05-04 20:00 | 40.99803 | 28.76153 | 5004 ft | 194 kts | 359° |
| 2026-05-04 20:01 | 41.01106 | 28.76153 | 5004 ft | 179 kts | 0° |
| 2026-05-04 20:01 | 41.02286 | 28.76145 | 5016 ft | 168 kts | 360° |
| 2026-05-04 20:01 | 41.03449 | 28.76120 | 4973 ft | 167 kts | 359° |
| 2026-05-04 20:01 | 41.04607 | 28.76091 | 4765 ft | 166 kts | 0° |
| 2026-05-04 20:02 | 41.05762 | 28.76070 | 4485 ft | 167 kts | 0° |
| 2026-05-04 20:02 | 41.06930 | 28.76047 | 4221 ft | 168 kts | 360° |
| 2026-05-04 20:02 | 41.08105 | 28.76024 | 3957 ft | 169 kts | 0° |
| 2026-05-04 20:02 | 41.09284 | 28.76001 | 3728 ft | 170 kts | 0° |
| 2026-05-04 20:03 | 41.10471 | 28.75978 | 3496 ft | 171 kts | 360° |
| 2026-05-04 20:03 | 41.11665 | 28.75954 | 3269 ft | 172 kts | 360° |
| 2026-05-04 20:03 | 41.12863 | 28.75931 | 2994 ft | 172 kts | 360° |
| 2026-05-04 20:03 | 41.14042 | 28.75907 | 2778 ft | 164 kts | 360° |
| 2026-05-04 20:04 | 41.15133 | 28.75884 | 2561 ft | 150 kts | 0° |
| 2026-05-04 20:04 | 41.16124 | 28.75864 | 2369 ft | 135 kts | 0° |
| 2026-05-04 20:04 | 41.17034 | 28.75847 | 2190 ft | 128 kts | 0° |
| 2026-05-04 20:04 | 41.17928 | 28.75831 | 2011 ft | 129 kts | 359° |
| 2026-05-04 20:05 | 41.18825 | 28.75813 | 1830 ft | 129 kts | 359° |
| 2026-05-04 20:05 | 41.19719 | 28.75796 | 1655 ft | 129 kts | 359° |
| 2026-05-04 20:05 | 41.20618 | 28.75778 | 1476 ft | 129 kts | 359° |
| 2026-05-04 20:05 | 41.21523 | 28.75760 | 1299 ft | 130 kts | 359° |
| 2026-05-04 20:06 | 41.22432 | 28.75743 | 1113 ft | 131 kts | 359° |
| 2026-05-04 20:06 | 41.23345 | 28.75725 | 947 ft | 132 kts | 357° |
| 2026-05-04 20:06 | 41.24267 | 28.75708 | 769 ft | 133 kts | 355° |
| 2026-05-04 20:06 | 41.25191 | 28.75689 | 587 ft | 133 kts | 355° |
| 2026-05-04 20:07 | 41.26116 | 28.75671 | 406 ft | 134 kts | 356° |
| 2026-05-04 20:07 | 41.26997 | 28.75647 | 352 ft | 124 kts | 4° |
| 2026-05-04 20:07 | 41.27729 | 28.75639 | 338 ft | 68 kts | 359° |
| 2026-05-04 20:07 | 41.27995 | 28.75597 | 338 ft | 26 kts | 339° |
| 2026-05-04 20:08 | 41.28073 | 28.75548 | 336 ft | 9 kts | 330° |
| 2026-05-04 20:08 | 41.28135 | 28.75496 | 336 ft | 12 kts | 323° |
| 2026-05-04 20:08 | 41.28156 | 28.75398 | 335 ft | 12 kts | 252° |
| 2026-05-04 20:08 | 41.28083 | 28.75349 | 336 ft | 14 kts | 181° |
| 2026-05-04 20:09 | 41.27978 | 28.75351 | 340 ft | 17 kts | 179° |
| 2026-05-04 20:09 | 41.27854 | 28.75355 | 337 ft | 19 kts | 179° |
| 2026-05-04 20:09 | 41.27725 | 28.75357 | 338 ft | 19 kts | 179° |
| 2026-05-04 20:09 | 41.27583 | 28.75360 | 336 ft | 22 kts | 179° |
| 2026-05-04 20:10 | 41.27438 | 28.75363 | 336 ft | 20 kts | 179° |
| 2026-05-04 20:10 | 41.27311 | 28.75366 | 340 ft | 19 kts | 179° |
| 2026-05-04 20:10 | 41.27180 | 28.75370 | 336 ft | 18 kts | 179° |
| 2026-05-04 20:10 | 41.27102 | 28.75368 | 336 ft | 7 kts | 193° |
| 2026-05-04 20:11 | 41.27074 | 28.75314 | 335 ft | 8 kts | 259° |
| 2026-05-04 20:11 | 41.27070 | 28.75223 | 340 ft | 11 kts | 269° |
| 2026-05-04 20:11 | 41.27067 | 28.75111 | 340 ft | 14 kts | 268° |
| 2026-05-04 20:11 | 41.27066 | 28.74974 | 337 ft | 16 kts | 269° |
| 2026-05-04 20:12 | 41.27064 | 28.74816 | 337 ft | 18 kts | 269° |
| 2026-05-04 20:12 | 41.27062 | 28.74640 | 336 ft | 20 kts | 269° |
| 2026-05-04 20:12 | 41.27059 | 28.74447 | 335 ft | 22 kts | 269° |
| 2026-05-04 20:12 | 41.27056 | 28.74240 | 337 ft | 23 kts | 269° |
| 2026-05-04 20:13 | 41.27053 | 28.74018 | 338 ft | 25 kts | 269° |
| 2026-05-04 20:13 | 41.27050 | 28.73783 | 338 ft | 26 kts | 269° |
| 2026-05-04 20:13 | 41.27047 | 28.73545 | 336 ft | 25 kts | 269° |
| 2026-05-04 20:13 | 41.27044 | 28.73341 | 339 ft | 21 kts | 269° |
| 2026-05-04 20:14 | 41.27042 | 28.73194 | 340 ft | 14 kts | 269° |
| 2026-05-04 20:14 | 41.27020 | 28.73122 | 335 ft | 8 kts | 220° |
| 2026-05-04 20:14 | 41.26955 | 28.73104 | 335 ft | 11 kts | 180° |
| 2026-05-04 20:14 | 41.26866 | 28.73106 | 337 ft | 14 kts | 179° |
| 2026-05-04 20:15 | 41.26756 | 28.73108 | 339 ft | 17 kts | 179° |
| 2026-05-04 20:15 | 41.26628 | 28.73111 | 335 ft | 20 kts | 179° |
| 2026-05-04 20:15 | 41.26482 | 28.73115 | 335 ft | 22 kts | 179° |
| 2026-05-04 20:15 | 41.26320 | 28.73118 | 335 ft | 24 kts | 179° |
| 2026-05-04 20:16 | 41.26143 | 28.73122 | 336 ft | 26 kts | 179° |
| 2026-05-04 20:16 | 41.25955 | 28.73127 | 337 ft | 27 kts | 179° |
| 2026-05-04 20:16 | 41.25765 | 28.73131 | 335 ft | 28 kts | 179° |
| 2026-05-04 20:16 | 41.25569 | 28.73136 | 336 ft | 29 kts | 179° |
| 2026-05-04 20:17 | 41.25370 | 28.73140 | 335 ft | 29 kts | 179° |
| 2026-05-04 20:17 | 41.25205 | 28.73144 | 336 ft | 22 kts | 179° |
| 2026-05-04 20:17 | 41.25084 | 28.73147 | 339 ft | 14 kts | 179° |
| 2026-05-04 20:17 | 41.25015 | 28.73181 | 337 ft | 10 kts | 115° |
| 2026-05-04 20:18 | 41.25009 | 28.73280 | 340 ft | 5 kts | 89° |
| 2026-05-04 20:18 | 41.25003 | 28.73342 | 339 ft | 8 kts | 117° |
| 2026-05-04 20:18 | 41.24957 | 28.73362 | 335 ft | 7 kts | 174° |
| 2026-05-04 20:18 | 41.24934 | 28.73363 | 338 ft | 0 kts | 178° |
| 2026-05-04 20:19 | 41.24931 | 28.73363 | 340 ft | 0 kts | 178° |
| 2026-05-04 20:19 | 41.24927 | 28.73363 | 340 ft | 0 kts | 178° |